Another Hard Day at the Office Weather Stats

 
 
 

High monthly outside Temperature, 22.8 , °C
Low monthly outside Temperature, -1.0 , °C
High yearly outside Temperature, 30.9 , °C
Low yearly outside Temperature, -2.2 , °C

Low monthly barometer, 1001.1 , mb
High monthly barometer, 1028.0 , mb
Low yearly barometer, 975.0 , mb
High yearly barometer 1041.1 , mb

High wind speed, 25.0 , mph
Time of High wind speed, 21:37 , mph
High monthly wind speed, 47.0 , mph
High yearly wind speed, 55.0 , mph

 

 




3137
                    Temp     Hi    Low   Out    Dew  Wind  Wind   Wind    Hi    Hi   Wind   Heat    THW                Rain    Heat    Cool    In     In    In     In     In   In Air  Wind  Wind    ISS   Arc.
  Date    Time     Out   Temp   Temp   Hum    Pt. Speed   Dir    Run Speed   Dir  Chill  Index  Index   Bar    Rain  Rate    D-D     D-D    Temp   Hum    Dew   Heat    EMC Density  Samp   Tx   Recept  Int.
---------------------------------------------------------------------------------------------------------------------------------------------------------------------------------------------------------------
27/11/20   0:05    7.9    7.9    7.8    90    6.3   4.0     N   0.33   8.0     N    6.9    7.9    6.9  1018.9  0.00  0.00   0.036   0.000   31.3    35   14.0   30.7   6.72  .0717    116    1    100.0    5 
27/11/20   0:10    7.9    7.9    7.8    90    6.4   5.0     N   0.42  10.0    NE    6.6    8.0    6.7  1018.9  0.00  0.00   0.036   0.000   31.3    35   14.0   30.8   6.72  .0717    116    1    100.0    5 
27/11/20   0:15    7.9    7.9    7.8    90    6.3   5.0   NNE   0.42  10.0    NE    6.5    7.9    6.6  1018.9  0.00  0.00   0.036   0.000   31.3    35   14.0   30.8   6.72  .0717    116    1    100.0    5 
27/11/20   0:20    7.9    7.9    7.8    90    6.4   4.0     N   0.33  12.0    NE    7.0    8.0    7.1  1018.9  0.00  0.00   0.036   0.000   31.3    35   14.0   30.8   6.72  .0717    117    1    100.0    5 
27/11/20   0:25    7.9    7.9    7.9    90    6.3   5.0   NNE   0.42  12.0    NE    6.5    7.9    6.6  1018.8  0.00  0.00   0.036   0.000   31.3    34   13.6   30.7   6.52  .0717    117    1    100.0    5 
27/11/20   0:30    7.9    7.9    7.9    90    6.4   4.0     N   0.33   7.0   NNE    7.0    8.0    7.1  1018.8  0.00  0.00   0.036   0.000   31.3    34   13.6   30.7   6.52  .0717    118    1    100.0    5 
27/11/20   0:35    7.9    7.9    7.9    90    6.3   4.0   NNE   0.33   8.0   NNE    6.9    7.9    6.9  1018.8  0.00  0.00   0.036   0.000   31.3    34   13.6   30.7   6.52  .0717    114    1    100.0    5 
27/11/20   0:40    7.9    7.9    7.9    89    6.2   4.0     N   0.33   8.0   NNE    6.9    7.9    6.9  1018.7  0.00  0.00   0.036   0.000   31.3    34   13.6   30.7   6.52  .0717    117    1    100.0    5 
27/11/20   0:45    7.9    7.9    7.8    89    6.2   5.0     N   0.42  10.0     N    6.5    7.9    6.6  1018.8  0.00  0.00   0.036   0.000   31.3    34   13.6   30.7   6.52  .0717    115    1    100.0    5 
27/11/20   0:50    7.8    7.9    7.8    89    6.1   5.0     N   0.42   9.0     N    6.4    7.9    6.5  1018.8  0.00  0.00   0.036   0.000   31.3    34   13.6   30.7   6.52  .0717    117    1    100.0    5 
27/11/20   0:55    7.9    7.9    7.8    89    6.2   5.0     N   0.42   9.0    NE    6.5    7.9    6.6  1018.8  0.00  0.00   0.036   0.000   31.3    34   13.6   30.7   6.52  .0717    116    1    100.0    5 
27/11/20   1:00    7.8    7.8    7.8    89    6.1   4.0     N   0.33   8.0     N    6.8    7.9    6.9  1018.7  0.00  0.00   0.036   0.000   31.3    34   13.6   30.7   6.52  .0717    116    1    100.0    5 
27/11/20   1:05    7.8    7.9    7.8    89    6.1   4.0     N   0.33   8.0    NE    6.8    7.9    6.9  1018.7  0.00  0.00   0.036   0.000   31.3    34   13.6   30.7   6.52  .0717    117    1    100.0    5 
27/11/20   1:10    7.8    7.9    7.8    89    6.1   4.0     N   0.33   8.0     N    6.8    7.9    6.9  1018.7  0.00  0.00   0.036   0.000   31.3    34   13.5   30.6   6.52  .0717    116    1    100.0    5 
27/11/20   1:15    7.8    7.8    7.8    89    6.1   5.0     N   0.42   8.0   NNE    6.4    7.8    6.4  1018.7  0.00  0.00   0.037   0.000   31.3    34   13.5   30.6   6.52  .0717    116    1    100.0    5 
27/11/20   1:20    7.7    7.8    7.7    89    6.0   5.0     N   0.42   9.0    NE    6.3    7.8    6.4  1018.6  0.00  0.00   0.037   0.000   31.3    34   13.5   30.6   6.52  .0717    116    1    100.0    5 
27/11/20   1:25    7.7    7.8    7.7    89    6.0   4.0     N   0.33   8.0    NE    6.7    7.8    6.8  1018.6  0.00  0.00   0.037   0.000   31.3    34   13.5   30.6   6.52  .0717    116    1    100.0    5 
27/11/20   1:30    7.7    7.8    7.7    89    6.0   4.0     N   0.33   9.0   NNE    6.7    7.8    6.8  1018.6  0.00  0.00   0.037   0.000   31.2    34   13.5   30.5   6.51  .0717    117    1    100.0    5 
27/11/20   1:35    7.7    7.7    7.7    89    6.0   4.0     N   0.33   8.0   NNE    6.7    7.8    6.8  1018.7  0.00  0.00   0.037   0.000   31.2    34   13.5   30.5   6.51  .0717    117    1    100.0    5 
27/11/20   1:40    7.7    7.7    7.7    89    6.0   4.0     N   0.33   8.0    NE    6.7    7.8    6.8  1018.7  0.00  0.00   0.037   0.000   31.2    34   13.5   30.5   6.51  .0717    117    1    100.0    5 
27/11/20   1:45    7.7    7.7    7.7    89    6.0   5.0     N   0.42   9.0     N    6.3    7.8    6.4  1018.8  0.00  0.00   0.037   0.000   31.2    34   13.5   30.5   6.51  .0717    117    1    100.0    5 
27/11/20   1:50    7.8    7.8    7.7    89    6.1   4.0     N   0.33   7.0   NNE    6.8    7.8    6.8  1018.7  0.00  0.00   0.037   0.000   31.2    34   13.5   30.5   6.51  .0717    116    1    100.0    5 
27/11/20   1:55    7.7    7.8    7.7    89    6.0   4.0     N   0.33   7.0     N    6.7    7.8    6.8  1018.8  0.00  0.00   0.037   0.000   31.2    34   13.5   30.5   6.51  .0717    116    1    100.0    5 
27/11/20   2:00    7.7    7.7    7.7    89    6.0   5.0     N   0.42   7.0     N    6.3    7.8    6.4  1018.8  0.00  0.00   0.037   0.000   31.2    34   13.5   30.5   6.51  .0717    117    1    100.0    5 
27/11/20   2:05    7.7    7.7    7.7    89    6.0   4.0     N   0.33   6.0     N    6.7    7.8    6.8  1018.8  0.00  0.00   0.037   0.000   31.2    34   13.5   30.5   6.51  .0717    116    1    100.0    5 
27/11/20   2:10    7.7    7.7    7.7    89    6.0   4.0     N   0.33   8.0     N    6.7    7.8    6.8  1018.9  0.00  0.00   0.037   0.000   31.2    34   13.4   30.4   6.51  .0717    116    1    100.0    5 
27/11/20   2:15    7.7    7.7    7.7    89    6.0   4.0     N   0.33   7.0   NNE    6.7    7.7    6.7  1018.9  0.00  0.00   0.037   0.000   31.2    34   13.4   30.4   6.51  .0717    117    1    100.0    5 
27/11/20   2:20    7.6    7.7    7.6    89    5.9   3.0     N   0.25   6.0     N    7.1    7.7    7.2  1018.8  0.00  0.00   0.037   0.000   31.2    34   13.4   30.4   6.51  .0717    116    1    100.0    5 
27/11/20   2:25    7.6    7.7    7.6    89    5.9   4.0     N   0.33   6.0     N    6.6    7.7    6.7  1018.7  0.00  0.00   0.037   0.000   31.1    34   13.4   30.3   6.51  .0718    117    1    100.0    5 
27/11/20   2:30    7.6    7.7    7.6    88    5.7   5.0     N   0.42   9.0   NNE    6.2    7.6    6.2  1018.7  0.00  0.00   0.037   0.000   31.1    34   13.4   30.3   6.51  .0718    117    1    100.0    5 
27/11/20   2:35    7.6    7.7    7.6    89    5.9   5.0     N   0.42   8.0     N    6.2    7.7    6.2  1018.7  0.00  0.00   0.037   0.000   31.1    33   12.9   30.2   6.41  .0718    117    1    100.0    5 
27/11/20   2:40    7.6    7.6    7.6    89    5.9   5.0     N   0.42   8.0     N    6.1    7.6    6.2  1018.7  0.00  0.00   0.037   0.000   31.1    33   12.9   30.2   6.41  .0718    116    1    100.0    5 
27/11/20   2:45    7.5    7.6    7.4    89    5.8   6.0     N   0.50  10.0   NNW    5.7    7.6    5.8  1018.6  0.00  0.00   0.038   0.000   31.1    33   12.9   30.2   6.41  .0718    115    1    100.0    5 
27/11/20   2:50    7.4    7.5    7.4    89    5.7   5.0     N   0.42   8.0     N    5.9    7.4    6.0  1018.7  0.00  0.00   0.038   0.000   31.1    33   12.9   30.2   6.41  .0718    117    1    100.0    5 
27/11/20   2:55    7.3    7.4    7.3    89    5.6   5.0     N   0.42   8.0     N    5.8    7.4    5.9  1018.7  0.00  0.00   0.038   0.000   31.1    33   12.9   30.2   6.41  .0718    117    1    100.0    5 
27/11/20   3:00    7.3    7.3    7.3    89    5.6   5.0     N   0.42   9.0   NNE    5.8    7.4    5.9  1018.6  0.00  0.00   0.038   0.000   31.1    33   12.9   30.2   6.41  .0718    117    1    100.0    5 
27/11/20   3:05    7.3    7.3    7.3    89    5.6   5.0     N   0.42   9.0     N    5.8    7.3    5.8  1018.6  0.00  0.00   0.038   0.000   31.1    33   12.9   30.2   6.41  .0718    114    1    100.0    5 
27/11/20   3:10    7.3    7.3    7.3    89    5.6   4.0     N   0.33   7.0   NNW    6.2    7.3    6.3  1018.5  0.00  0.00   0.038   0.000   31.1    33   12.9   30.2   6.41  .0718    117    1    100.0    5 
27/11/20   3:15    7.3    7.3    7.3    90    5.7   4.0     N   0.33   7.0     N    6.2    7.3    6.3  1018.4  0.00  0.00   0.038   0.000   31.0    33   12.8   30.1   6.41  .0718    116    1    100.0    5 
27/11/20   3:20    7.3    7.3    7.3    90    5.8   5.0     N   0.42  10.0   NNE    5.8    7.4    5.9  1018.4  0.00  0.00   0.038   0.000   31.0    33   12.8   30.1   6.41  .0718    117    1    100.0    5 
27/11/20   3:25    7.3    7.3    7.3    90    5.8   5.0     N   0.42   9.0   NNE    5.8    7.4    5.9  1018.4  0.00  0.00   0.038   0.000   31.0    33   12.8   30.1   6.41  .0718    116    1    100.0    5 
27/11/20   3:30    7.3    7.3    7.3    89    5.6   5.0     N   0.42  10.0   NNE    5.8    7.4    5.9  1018.4  0.00  0.00   0.038   0.000   30.9    33   12.8   30.1   6.40  .0718    117    1    100.0    5 
27/11/20   3:35    7.3    7.3    7.3    89    5.6   5.0   NNE   0.42   8.0     N    5.8    7.4    5.9  1018.3  0.00  0.00   0.038   0.000   30.9    33   12.8   30.1   6.40  .0718    117    1    100.0    5 
27/11/20   3:40    7.3    7.3    7.3    89    5.6   4.0     N   0.33   7.0     N    6.3    7.4    6.3  1018.3  0.00  0.00   0.038   0.000   30.9    33   12.8   30.1   6.40  .0718    116    1    100.0    5 
27/11/20   3:45    7.3    7.3    7.3    89    5.6   4.0     N   0.33   9.0   ENE    6.3    7.4    6.3  1018.4  0.00  0.00   0.038   0.000   30.9    33   12.8   30.1   6.40  .0718    116    1    100.0    5 
27/11/20   3:50    7.3    7.3    7.3    90    5.7   4.0     N   0.33   7.0   NNE    6.2    7.3    6.3  1018.4  0.00  0.00   0.038   0.000   30.9    33   12.8   30.1   6.40  .0718    114    1    100.0    5 
27/11/20   3:55    7.3    7.3    7.2    90    5.7   5.0     N   0.42   8.0    NE    5.8    7.3    5.8  1018.4  0.00  0.00   0.038   0.000   30.9    33   12.8   30.1   6.40  .0718    117    1    100.0    5 
27/11/20   4:00    7.2    7.3    7.2    90    5.7   4.0     N   0.33   8.0     N    6.2    7.3    6.2  1018.4  0.00  0.00   0.039   0.000   30.9    33   12.8   30.1   6.40  .0718    117    1    100.0    5 
27/11/20   4:05    7.2    7.3    7.2    90    5.7   4.0     N   0.33   8.0   NNE    6.2    7.3    6.2  1018.4  0.01  0.00   0.039   0.000   30.9    33   12.8   30.1   6.40  .0718    117    1    100.0    5 
27/11/20   4:10    7.2    7.3    7.2    90    5.7   4.0     N   0.33   8.0     N    6.2    7.3    6.2  1018.3  0.00  0.00   0.039   0.000   30.9    33   12.8   30.1   6.40  .0718    117    1    100.0    5 
27/11/20   4:15    7.2    7.2    7.2    90    5.6   5.0     N   0.42  10.0   ENE    5.7    7.2    5.7  1018.4  0.00  0.00   0.039   0.000   30.9    33   12.8   30.1   6.40  .0718    117    1    100.0    5 
27/11/20   4:20    7.1    7.2    7.1    90    5.6   5.0     N   0.42  10.0     N    5.6    7.2    5.7  1018.3  0.00  0.00   0.039   0.000   30.9    33   12.7   30.1   6.40  .0718    117    1    100.0    5 
27/11/20   4:25    7.1    7.1    7.1    90    5.5   5.0   NNE   0.42  10.0   NNE    5.6    7.1    5.6  1018.3  0.00  0.00   0.039   0.000   30.9    33   12.7   30.1   6.40  .0718    117    1    100.0    5 
27/11/20   4:30    7.1    7.1    7.1    90    5.5   5.0     N   0.42  10.0     N    5.6    7.1    5.6  1018.3  0.00  0.00   0.039   0.000   30.9    33   12.7   30.1   6.40  .0718    116    1    100.0    5 
27/11/20   4:35    7.0    7.1    7.0    90    5.5   5.0     N   0.42   8.0     N    5.5    7.1    5.6  1018.3  0.00  0.00   0.039   0.000   30.8    33   12.7   30.1   6.40  .0718    116    1    100.0    5 
27/11/20   4:40    7.0    7.1    6.9    90    5.5   5.0     N   0.42   7.0   NNW    5.5    7.1    5.6  1018.3  0.01  0.00   0.039   0.000   30.8    33   12.7   30.1   6.40  .0718    117    1    100.0    5 
27/11/20   4:45    6.9    7.0    6.9    90    5.4   4.0     N   0.33   7.0     N    5.8    7.0    5.9  1018.3  0.00  0.00   0.040   0.000   30.8    33   12.7   30.1   6.40  .0718    117    1    100.0    5 
27/11/20   4:50    6.9    6.9    6.9    90    5.4   4.0     N   0.33   6.0   NNE    5.8    7.0    5.9  1018.3  0.01  0.05   0.040   0.000   30.8    33   12.6   30.0   6.40  .0719    118    1    100.0    5 
27/11/20   4:55    6.9    6.9    6.9    90    5.4   5.0     N   0.42   9.0     N    5.3    6.9    5.4  1018.2  0.00  0.05   0.040   0.000   30.8    33   12.6   30.0   6.40  .0718    117    1    100.0    5 
27/11/20   5:00    6.9    6.9    6.8    90    5.4   5.0     N   0.42   9.0     N    5.3    6.9    5.4  1018.2  0.00  0.04   0.040   0.000   30.8    33   12.6   30.0   6.40  .0719    117    1    100.0    5 
27/11/20   5:05    6.9    6.9    6.8    91    5.5   5.0     N   0.42  10.0   NNE    5.3    6.9    5.4  1018.1  0.00  0.00   0.040   0.000   30.7    33   12.6   30.0   6.40  .0719    115    1    100.0    5 
27/11/20   5:10    6.8    6.9    6.8    91    5.5   5.0     N   0.42   9.0   NNE    5.3    6.9    5.3  1018.1  0.00  0.00   0.040   0.000   30.7    33   12.6   30.0   6.40  .0719    117    1    100.0    5 
27/11/20   5:15    6.8    6.9    6.8    91    5.5   4.0     N   0.33   8.0    NE    5.7    6.9    5.8  1018.0  0.00  0.00   0.040   0.000   30.7    33   12.6   30.0   6.40  .0719    116    1    100.0    5 
27/11/20   5:20    6.8    6.9    6.8    91    5.5   4.0     N   0.33   7.0   NNE    5.7    6.9    5.8  1018.1  0.00  0.00   0.040   0.000   30.7    33   12.6   29.9   6.39  .0719    117    1    100.0    5 
27/11/20   5:25    6.8    6.8    6.8    91    5.4   5.0     N   0.42   9.0   NNW    5.2    6.8    5.3  1018.1  0.00  0.00   0.040   0.000   30.7    33   12.6   29.9   6.39  .0719    117    1    100.0    5 
27/11/20   5:30    6.8    6.8    6.8    91    5.4   6.0     N   0.50  10.0     N    4.8    6.8    4.9  1018.0  0.00  0.00   0.040   0.000   30.6    33   12.5   29.9   6.39  .0719    117    1    100.0    5 
27/11/20   5:35    6.8    6.8    6.7    91    5.4   5.0     N   0.42  10.0     N    5.2    6.8    5.3  1018.0  0.00  0.00   0.040   0.000   30.6    33   12.5   29.9   6.39  .0719    116    1    100.0    5 
27/11/20   5:40    6.7    6.8    6.7    91    5.4   6.0     N   0.50  11.0   ENE    4.8    6.8    4.8  1018.0  0.00  0.00   0.040   0.000   30.6    33   12.5   29.9   6.39  .0719    117    1    100.0    5 
27/11/20   5:45    6.7    6.7    6.7    91    5.3   6.0     N   0.50   9.0   NNW    4.7    6.7    4.8  1018.0  0.01  0.00   0.041   0.000   30.6    33   12.5   29.9   6.39  .0719    116    1    100.0    5 
27/11/20   5:50    6.6    6.7    6.6    91    5.2   5.0     N   0.42   8.0    NE    5.1    6.7    5.1  1017.9  0.00  0.00   0.041   0.000   30.6    33   12.5   29.9   6.39  .0719    118    1    100.0    5 
27/11/20   5:55    6.6    6.7    6.6    91    5.2   5.0     N   0.42  11.0   NNW    5.1    6.7    5.1  1017.9  0.01  0.07   0.041   0.000   30.6    33   12.5   29.9   6.39  .0719    117    1    100.0    5 
27/11/20   6:00    6.6    6.6    6.6    91    5.2   4.0   NNE   0.33   8.0   ENE    5.4    6.7    5.5  1017.8  0.00  0.06   0.041   0.000   30.6    33   12.5   29.9   6.39  .0719    116    1    100.0    5 
27/11/20   6:05    6.6    6.6    6.6    91    5.2   5.0     N   0.42   9.0   NNE    5.1    6.7    5.1  1017.8  0.00  0.04   0.041   0.000   30.5    33   12.4   29.8   6.39  .0719    117    1    100.0    5 
27/11/20   6:10    6.6    6.6    6.6    91    5.2   5.0     N   0.42  10.0   NNW    5.1    6.7    5.1  1017.7  0.00  0.00   0.041   0.000   30.5    33   12.4   29.8   6.39  .0719    116    1    100.0    5 
27/11/20   6:15    6.6    6.6    6.6    91    5.2   5.0     N   0.42   9.0   NNW    5.1    6.7    5.1  1017.6  0.00  0.00   0.041   0.000   30.5    33   12.4   29.8   6.39  .0719    117    1    100.0    5 
27/11/20   6:20    6.6    6.6    6.6    91    5.2   6.0   NNE   0.50  11.0   NNE    4.7    6.7    4.7  1017.6  0.00  0.00   0.041   0.000   30.4    33   12.4   29.8   6.39  .0719    116    1    100.0    5 
27/11/20   6:25    6.6    6.6    6.6    91    5.2   6.0   NNE   0.50  11.0     N    4.6    6.6    4.7  1017.6  0.00  0.00   0.041   0.000   30.4    33   12.4   29.8   6.39  .0719    117    1    100.0    5 
27/11/20   6:30    6.6    6.6    6.6    91    5.2   5.0     N   0.42  11.0     E    5.1    6.7    5.1  1017.6  0.00  0.00   0.041   0.000   30.4    33   12.4   29.8   6.39  .0719    117    1    100.0    5 
27/11/20   6:35    6.6    6.7    6.6    90    5.1   5.0     N   0.42  11.0    NE    5.1    6.7    5.1  1017.6  0.00  0.00   0.041   0.000   30.4    33   12.3   29.7   6.38  .0719    117    1    100.0    5 
27/11/20   6:40    6.6    6.6    6.6    90    5.1   6.0     N   0.50  10.0   NNE    4.7    6.7    4.7  1017.7  0.00  0.00   0.041   0.000   30.4    33   12.3   29.7   6.38  .0719    117    1    100.0    5 
27/11/20   6:45    6.6    6.6    6.6    90    5.1   5.0     N   0.42   8.0     N    5.1    6.7    5.1  1017.7  0.00  0.00   0.041   0.000   30.3    33   12.3   29.7   6.38  .0719    117    1    100.0    5 
27/11/20   6:50    6.6    6.7    6.6    90    5.1   5.0     N   0.42  10.0   NNE    5.1    6.7    5.1  1017.7  0.00  0.00   0.041   0.000   30.3    33   12.3   29.7   6.38  .0719    117    1    100.0    5 
27/11/20   6:55    6.6    6.6    6.6    90    5.0   7.0     N   0.58  12.0     N    4.3    6.6    4.4  1017.7  0.00  0.00   0.041   0.000   30.3    33   12.3   29.7   6.38  .0719    117    1    100.0    5 
27/11/20   7:00    6.6    6.6    6.6    90    5.0   6.0     N   0.50  12.0   NNE    4.6    6.6    4.7  1017.8  0.00  0.00   0.041   0.000   30.3    33   12.3   29.7   6.38  .0720    114    1    100.0    5 
27/11/20   7:05    6.6    6.6    6.6    90    5.0   6.0     N   0.50  10.0    NE    4.6    6.6    4.7  1017.9  0.00  0.00   0.041   0.000   30.3    33   12.2   29.6   6.38  .0720    116    1    100.0    5 
27/11/20   7:10    6.6    6.6    6.6    90    5.1   5.0     N   0.42  10.0    NE    5.1    6.7    5.1  1017.9  0.00  0.00   0.041   0.000   30.3    33   12.2   29.6   6.38  .0720    117    1    100.0    5 
27/11/20   7:15    6.6    6.6    6.6    90    5.0   5.0     N   0.42   9.0     N    5.0    6.6    5.1  1017.9  0.00  0.00   0.041   0.000   30.2    33   12.2   29.6   6.38  .0720    117    1    100.0    5 
27/11/20   7:20    6.6    6.6    6.6    90    5.0   4.0     N   0.33   6.0   NNE    5.4    6.6    5.4  1017.9  0.00  0.00   0.041   0.000   30.2    33   12.2   29.6   6.38  .0720    117    1    100.0    5 
27/11/20   7:25    6.6    6.6    6.6    89    4.9   3.0   NNE   0.25   8.0     N    6.0    6.7    6.1  1017.9  0.00  0.00   0.041   0.000   30.2    33   12.2   29.6   6.38  .0720    117    1    100.0    5 
27/11/20   7:30    6.7    6.7    6.6    89    5.0   4.0     N   0.33   7.0   NNE    5.5    6.7    5.6  1018.0  0.00  0.00   0.041   0.000   30.2    33   12.1   29.6   6.38  .0720    117    1    100.0    5 
27/11/20   7:35    6.7    6.7    6.6    89    5.0   5.0   NNE   0.42   9.0   NNE    5.1    6.7    5.2  1018.0  0.00  0.00   0.041   0.000   30.2    33   12.1   29.6   6.38  .0720    117    1    100.0    5 
27/11/20   7:40    6.7    6.7    6.7    89    5.0   5.0     N   0.42  10.0   NNE    5.1    6.7    5.2  1018.1  0.00  0.00   0.041   0.000   30.2    33   12.1   29.6   6.38  .0720    117    1    100.0    5 
27/11/20   7:45    6.7    6.8    6.7    89    5.0   4.0   NNE   0.33   8.0    NE    5.6    6.8    5.6  1018.1  0.00  0.00   0.040   0.000   30.1    33   12.1   29.5   6.37  .0720    117    1    100.0    5 
27/11/20   7:50    6.8    6.8    6.7    88    4.9   4.0   NNE   0.33   8.0     N    5.6    6.8    5.6  1018.1  0.00  0.00   0.040   0.000   30.1    33   12.1   29.5   6.37  .0720    116    1    100.0    5 
27/11/20   7:55    6.7    6.8    6.7    88    4.9   5.0     N   0.42   9.0   NNE    5.2    6.7    5.2  1018.1  0.00  0.00   0.040   0.000   30.1    33   12.1   29.5   6.37  .0720    116    1    100.0    5 
27/11/20   8:00    6.8    6.8    6.7    88    4.9   4.0   NNE   0.33   8.0   ENE    5.6    6.8    5.6  1018.1  0.00  0.00   0.040   0.000   30.1    33   12.1   29.5   6.37  .0720    118    1    100.0    5 
27/11/20   8:05    6.8    6.8    6.7    88    4.9   5.0   NNE   0.42   9.0    NE    5.2    6.8    5.2  1018.1  0.00  0.00   0.040   0.000   30.1    33   12.1   29.5   6.37  .0720    116    1    100.0    5 
27/11/20   8:10    6.8    6.8    6.7    88    4.9   5.0   NNE   0.42  11.0    NE    5.2    6.8    5.2  1018.0  0.00  0.00   0.040   0.000   30.1    33   12.0   29.4   6.37  .0721    117    1    100.0    5 
27/11/20   8:15    6.8    6.8    6.8    88    4.9   5.0     N   0.42   9.0    NE    5.2    6.8    5.2  1018.0  0.00  0.00   0.040   0.000   30.1    33   12.0   29.4   6.37  .0720    115    1    100.0    5 
27/11/20   8:20    6.8    6.8    6.8    88    4.9   6.0   NNE   0.50  12.0   ENE    4.8    6.8    4.8  1017.9  0.00  0.00   0.040   0.000   30.0    34   12.4   29.5   6.47  .0720    117    1    100.0    5 
27/11/20   8:25    6.8    6.8    6.8    87    4.8   5.0    NE   0.42  11.0   ENE    5.3    6.8    5.3  1017.9  0.00  0.00   0.040   0.000   30.0    34   12.4   29.5   6.47  .0720    116    1    100.0    5 
27/11/20   8:30    6.8    6.9    6.8    87    4.8   6.0    NE   0.50  11.0     E    4.9    6.8    4.9  1017.9  0.00  0.00   0.040   0.000   29.9    34   12.4   29.4   6.47  .0720    117    1    100.0    5 
27/11/20   8:35    6.8    6.9    6.8    87    4.8   5.0   NNE   0.42  12.0    NE    5.3    6.8    5.3  1017.9  0.00  0.00   0.040   0.000   30.0    34   12.4   29.5   6.47  .0720    116    1    100.0    5 
27/11/20   8:40    6.8    6.8    6.8    87    4.8   7.0   NNE   0.58  12.0     N    4.6    6.8    4.6  1017.9  0.00  0.00   0.040   0.000   29.9    34   12.4   29.4   6.47  .0720    116    1    100.0    5 
27/11/20   8:45    6.8    6.8    6.8    87    4.8   6.0     N   0.50  10.0   NNW    4.8    6.8    4.8  1017.8  0.00  0.00   0.040   0.000   29.9    34   12.3   29.4   6.47  .0721    117    1    100.0    5 
27/11/20   8:50    6.7    6.8    6.7    87    4.7   7.0     N   0.58  12.0   NNE    4.5    6.7    4.5  1017.9  0.00  0.00   0.040   0.000   29.8    34   12.3   29.3   6.46  .0721    117    1    100.0    5 
27/11/20   8:55    6.7    6.8    6.7    87    4.7   6.0   NNE   0.50  12.0   ENE    4.8    6.7    4.8  1017.9  0.00  0.00   0.040   0.000   29.8    34   12.3   29.3   6.46  .0721    115    1    100.0    5 
27/11/20   9:00    6.7    6.8    6.7    87    4.7   7.0   NNE   0.58  12.0    NE    4.5    6.7    4.5  1017.9  0.00  0.00   0.040   0.000   29.8    34   12.3   29.3   6.46  .0721    115    1    100.0    5 
27/11/20   9:05    6.7    6.7    6.7    87    4.7   6.0     N   0.50  11.0     N    4.7    6.7    4.7  1017.9  0.00  0.00   0.041   0.000   29.8    35   12.7   29.4   6.66  .0721    115    1    100.0    5 
27/11/20   9:10    6.7    6.7    6.7    88    4.8   6.0     N   0.50  12.0     N    4.7    6.7    4.7  1018.0  0.00  0.00   0.041   0.000   29.8    35   12.7   29.4   6.66  .0721    116    1    100.0    5 
27/11/20   9:15    6.7    6.7    6.7    88    4.8   6.0     N   0.50  10.0    NE    4.7    6.7    4.7  1017.9  0.00  0.00   0.041   0.000   29.7    35   12.6   29.3   6.66  .0721    115    1    100.0    5 
27/11/20   9:20    6.7    6.7    6.7    88    4.8   7.0     N   0.58  14.0   NNE    4.4    6.7    4.4  1018.0  0.00  0.00   0.041   0.000   29.7    35   12.6   29.2   6.66  .0721    116    1    100.0    5 
27/11/20   9:25    6.7    6.7    6.6    88    4.8   8.0     N   0.67  13.0     N    4.1    6.7    4.1  1018.0  0.00  0.00   0.041   0.000   29.7    35   12.6   29.2   6.66  .0721    117    1    100.0    5 
27/11/20   9:30    6.6    6.7    6.6    88    4.7   7.0     N   0.58  14.0   NNE    4.3    6.6    4.3  1018.1  0.00  0.00   0.041   0.000   29.7    35   12.6   29.2   6.66  .0721    114    1    100.0    5 
27/11/20   9:35    6.6    6.6    6.5    88    4.7   6.0     N   0.50  11.0   NNE    4.6    6.6    4.6  1018.1  0.00  0.00   0.041   0.000   29.7    35   12.6   29.2   6.66  .0721    116    1    100.0    5 
27/11/20   9:40    6.5    6.6    6.5    88    4.7   6.0     N   0.50  11.0   NNE    4.5    6.5    4.5  1018.0  0.00  0.00   0.041   0.000   29.6    35   12.5   29.2   6.66  .0721    116    1    100.0    5 
27/11/20   9:45    6.5    6.5    6.4    89    4.8   6.0     N   0.50   9.0     N    4.5    6.5    4.5  1017.9  0.00  0.00   0.041   0.000   29.6    35   12.5   29.2   6.66  .0721    115    1    100.0    5 
27/11/20   9:50    6.4    6.5    6.4    89    4.8   5.0     N   0.42   9.0     N    4.8    6.4    4.8  1017.9  0.00  0.00   0.041   0.000   29.6    35   12.5   29.2   6.66  .0721    116    1    100.0    5 
27/11/20   9:55    6.4    6.5    6.4    89    4.8   5.0     N   0.42   9.0   NNE    4.8    6.4    4.8  1017.9  0.00  0.00   0.041   0.000   29.6    35   12.5   29.2   6.66  .0721    116    1    100.0    5 
27/11/20  10:00    6.4    6.4    6.4    89    4.8   6.0     N   0.50  10.0   NNE    4.4    6.4    4.4  1017.8  0.00  0.00   0.041   0.000   29.6    35   12.5   29.2   6.66  .0721    116    1    100.0    5 
27/11/20  10:05    6.5    6.5    6.4    89    4.8   7.0     N   0.58  12.0     N    4.2    6.5    4.2  1017.7  0.00  0.00   0.041   0.000   29.6    36   13.0   29.3   6.76  .0721    115    1    100.0    5 
27/11/20  10:10    6.5    6.5    6.4    89    4.8   8.0     N   0.67  13.0   ENE    3.9    6.5    3.9  1017.7  0.00  0.00   0.041   0.000   29.6    36   12.9   29.2   6.75  .0721    116    1    100.0    5 
27/11/20  10:15    6.6    6.6    6.5    88    4.7   6.0     N   0.50  13.0    NE    4.6    6.6    4.6  1017.6  0.00  0.00   0.041   0.000   29.6    36   12.9   29.2   6.75  .0721    116    1    100.0    5 
27/11/20  10:20    6.6    6.6    6.6    88    4.8   5.0   NNE   0.42  12.0   NNE    5.1    6.6    5.1  1017.6  0.00  0.00   0.041   0.000   29.6    36   13.0   29.3   6.76  .0721    117    1    100.0    5 
27/11/20  10:25    6.7    6.7    6.6    88    4.9   6.0     N   0.50  11.0     N    4.8    6.7    4.8  1017.6  0.00  0.00   0.040   0.000   29.6    35   12.5   29.2   6.66  .0721    116    1    100.0    5 
27/11/20  10:30    6.8    6.8    6.7    87    4.8   7.0     N   0.58  18.0   ENE    4.6    6.8    4.6  1017.5  0.00  0.00   0.040   0.000   29.6    35   12.5   29.2   6.66  .0721    117    1    100.0    5 
27/11/20  10:35    6.8    6.8    6.8    87    4.8   7.0     N   0.58  12.0     N    4.7    6.8    4.7  1017.4  0.00  0.00   0.040   0.000   29.7    35   12.6   29.2   6.66  .0721    116    1    100.0    5 
27/11/20  10:40    6.9    6.9    6.8    87    4.9   7.0     N   0.58  13.0    NE    4.7    6.9    4.7  1017.4  0.00  0.00   0.040   0.000   29.7    35   12.6   29.2   6.66  .0721    117    1    100.0    5 
27/11/20  10:45    7.0    7.0    6.9    87    5.0   7.0   NNE   0.58  14.0   NNE    4.8    7.0    4.8  1017.3  0.00  0.00   0.039   0.000   29.7    35   12.6   29.3   6.66  .0720    113    1     99.1    5 
27/11/20  10:50    7.1    7.1    7.0    86    4.9   7.0   NNE   0.58  16.0   NNE    4.9    7.0    4.8  1017.2  0.00  0.00   0.039   0.000   29.8    35   12.7   29.4   6.66  .0720    116    1    100.0    5 
27/11/20  10:55    7.2    7.2    7.1    86    5.0   7.0     N   0.58  12.0   NNW    5.1    7.1    5.0  1017.1  0.00  0.00   0.039   0.000   29.8    35   12.7   29.4   6.66  .0720    116    1    100.0    5 
27/11/20  11:00    7.3    7.3    7.2    86    5.1   7.0     N   0.58  12.0     N    5.2    7.3    5.2  1017.1  0.00  0.00   0.038   0.000   29.8    34   12.3   29.3   6.46  .0720    116    1    100.0    5 
27/11/20  11:05    7.4    7.4    7.3    86    5.3   6.0   NNE   0.50  12.0   NNE    5.7    7.4    5.7  1016.9  0.00  0.00   0.038   0.000   29.8    34   12.3   29.3   6.46  .0720    116    1    100.0    5 
27/11/20  11:10    7.6    7.6    7.4    86    5.4   5.0     N   0.42   9.0   NNE    6.2    7.6    6.2  1016.9  0.00  0.00   0.037   0.000   29.9    34   12.3   29.4   6.47  .0720    117    1    100.0    5 
27/11/20  11:15    7.8    7.8    7.7    86    5.6   4.0     N   0.33   9.0    NE    6.8    7.8    6.8  1016.9  0.00  0.00   0.037   0.000   29.9    34   12.4   29.4   6.47  .0720    118    1    100.0    5 
27/11/20  11:20    7.8    7.8    7.7    86    5.6   6.0   NNE   0.50  14.0   ENE    6.1    7.8    6.1  1016.8  0.00  0.00   0.036   0.000   30.0    34   12.4   29.5   6.47  .0719    114    1    100.0    5 
27/11/20  11:25    7.8    7.9    7.8    86    5.6   5.0     N   0.42   9.0   NNE    6.4    7.8    6.4  1016.7  0.00  0.00   0.036   0.000   30.0    34   12.4   29.5   6.47  .0719    115    1    100.0    5 
27/11/20  11:30    7.9    7.9    7.8    86    5.7   5.0   NNE   0.42  13.0    NE    6.6    7.9    6.6  1016.7  0.00  0.00   0.036   0.000   30.1    34   12.5   29.6   6.47  .0719    116    1    100.0    5 
27/11/20  11:35    8.0    8.0    7.9    86    5.8   5.0   NNE   0.42   9.0   ENE    6.7    8.0    6.7  1016.7  0.00  0.00   0.036   0.000   30.1    34   12.5   29.6   6.47  .0719    113    1     99.1    5 
27/11/20  11:40    8.1    8.1    8.0    86    5.9   5.0    NE   0.42  10.0   NNE    6.7    8.1    6.7  1016.6  0.00  0.00   0.036   0.000   30.1    34   12.5   29.6   6.47  .0719    117    1    100.0    5 
27/11/20  11:45    8.2    8.2    8.1    86    6.0   5.0    NE   0.42  11.0    NE    6.8    8.2    6.8  1016.5  0.00  0.00   0.035   0.000   30.1    34   12.5   29.6   6.47  .0719    117    1    100.0    5 
27/11/20  11:50    8.2    8.3    8.2    87    6.2   5.0    NE   0.42  10.0   NNE    6.9    8.3    7.0  1016.5  0.00  0.00   0.035   0.000   30.2    34   12.6   29.7   6.48  .0719    116    1    100.0    5 
27/11/20  11:55    8.4    8.4    8.2    87    6.3   4.0     N   0.33   9.0    NE    7.5    8.4    7.6  1016.5  0.00  0.00   0.035   0.000   30.2    34   12.6   29.7   6.48  .0719    117    1    100.0    5 
27/11/20  12:00    8.4    8.4    8.3    87    6.4   4.0   NNE   0.33   8.0    NE    7.6    8.5    7.6  1016.5  0.00  0.00   0.034   0.000   30.2    33   12.2   29.6   6.38  .0719    117    1    100.0    5 
27/11/20  12:05    8.6    8.6    8.4    87    6.5   5.0   NNE   0.42   9.0     N    7.3    8.6    7.4  1016.4  0.00  0.00   0.034   0.000   30.2    33   12.2   29.6   6.38  .0719    115    1    100.0    5 
27/11/20  12:10    8.6    8.6    8.6    87    6.6   4.0     N   0.33   7.0    NE    7.8    8.7    7.8  1016.4  0.00  0.00   0.034   0.000   30.2    33   12.2   29.6   6.38  .0719    116    1    100.0    5 
27/11/20  12:15    8.7    8.7    8.6    87    6.6   4.0     N   0.33   9.0   ENE    7.8    8.7    7.9  1016.4  0.00  0.00   0.034   0.000   30.3    33   12.2   29.6   6.38  .0719    115    1    100.0    5 
27/11/20  12:20    8.7    8.8    8.7    87    6.7   4.0   NNE   0.33   7.0   NNE    7.9    8.8    7.9  1016.3  0.00  0.00   0.033   0.000   30.3    33   12.2   29.6   6.38  .0719    117    1    100.0    5 
27/11/20  12:25    8.9    8.9    8.7    87    6.8   3.0   NNE   0.25   6.0     N    8.6    8.9    8.6  1016.2  0.00  0.00   0.033   0.000   30.3    33   12.2   29.6   6.38  .0719    117    1    100.0    5 
27/11/20  12:30    8.9    8.9    8.9    86    6.7   4.0    NE   0.33   8.0   ENE    8.2    8.9    8.2  1016.2  0.00  0.00   0.033   0.000   30.3    33   12.2   29.6   6.38  .0719    117    1    100.0    5 
27/11/20  12:35    8.9    9.0    8.9    86    6.7   5.0    NE   0.42  11.0   ENE    7.8    8.9    7.8  1016.1  0.00  0.00   0.033   0.000   30.3    33   12.2   29.6   6.38  .0718    117    1    100.0    5 
27/11/20  12:40    8.9    9.0    8.9    86    6.7   5.0    NE   0.42   9.0   NNE    7.8    8.9    7.8  1016.1  0.00  0.00   0.033   0.000   30.3    33   12.3   29.7   6.38  .0718    117    1    100.0    5 
27/11/20  12:45    8.9    9.0    8.9    86    6.7   5.0    NE   0.42  10.0    NE    7.8    8.9    7.8  1016.0  0.00  0.00   0.033   0.000   30.3    33   12.3   29.7   6.38  .0718    117    1    100.0    5 
27/11/20  12:50    8.9    9.0    8.9    86    6.7   5.0    NE   0.42  10.0   ENE    7.8    8.9    7.8  1016.0  0.00  0.00   0.033   0.000   30.3    33   12.3   29.7   6.38  .0718    116    1    100.0    5 
27/11/20  12:55    9.0    9.0    8.9    86    6.8   5.0   NNE   0.42   9.0    NE    7.8    9.1    7.9  1015.9  0.00  0.00   0.032   0.000   30.3    33   12.3   29.7   6.38  .0718    117    1    100.0    5 
27/11/20  13:00    9.1    9.1    9.0    86    6.8   3.0     N   0.25   7.0     N    8.7    9.1    8.8  1015.9  0.00  0.00   0.032   0.000   30.3    33   12.3   29.7   6.38  .0718    117    1    100.0    5 
27/11/20  13:05    9.2    9.2    9.1    86    6.9   4.0     N   0.33   6.0   NNW    8.4    9.2    8.5  1015.9  0.00  0.00   0.032   0.000   30.3    34   12.7   29.8   6.48  .0718    117    1    100.0    5 
27/11/20  13:10    9.3    9.3    9.2    86    7.1   3.0     N   0.25   6.0   NNE    9.0    9.3    9.1  1015.8  0.00  0.00   0.031   0.000   30.3    34   12.7   29.8   6.48  .0718    117    1    100.0    5 
27/11/20  13:15    9.4    9.4    9.3    86    7.2   3.0   ENE   0.25   8.0   ENE    9.1    9.4    9.2  1015.7  0.00  0.00   0.031   0.000   30.3    34   12.7   29.8   6.48  .0718    117    1    100.0    5 
27/11/20  13:20    9.6    9.6    9.4    86    7.3   4.0    NE   0.33   7.0    NE    8.8    9.6    8.9  1015.8  0.00  0.00   0.030   0.000   30.2    34   12.6   29.7   6.48  .0718    118    1    100.0    5 
27/11/20  13:25    9.7    9.7    9.5    86    7.4   3.0   ENE   0.25   6.0    NE    9.4    9.7    9.5  1015.6  0.00  0.00   0.030   0.000   30.2    34   12.6   29.7   6.48  .0718    114    1    100.0    5 
27/11/20  13:30    9.8    9.8    9.7    86    7.5   3.0   ENE   0.25   7.0   ENE    9.6    9.8    9.6  1015.5  0.00  0.00   0.030   0.000   30.2    34   12.6   29.7   6.48  .0718    117    1    100.0    5 
27/11/20  13:35    9.8    9.8    9.8    86    7.6   3.0   ENE   0.25   8.0   ENE    9.6    9.9    9.7  1015.4  0.00  0.00   0.030   0.000   30.2    34   12.6   29.7   6.48  .0718    116    1    100.0    5 
27/11/20  13:40    9.8    9.8    9.8    86    7.6   3.0   ENE   0.25   8.0   ENE    9.6    9.9    9.7  1015.4  0.00  0.00   0.030   0.000   30.2    34   12.6   29.7   6.48  .0718    116    1    100.0    5 
27/11/20  13:45    9.8    9.8    9.8    86    7.5   5.0   ENE   0.42  11.0   ENE    8.7    9.8    8.8  1015.4  0.00  0.00   0.030   0.000   30.2    34   12.6   29.7   6.48  .0718    117    1    100.0    5 
27/11/20  13:50    9.8    9.8    9.8    86    7.5   5.0   ENE   0.42  11.0   ENE    8.7    9.8    8.8  1015.3  0.00  0.00   0.030   0.000   30.2    34   12.6   29.7   6.48  .0718    116    1    100.0    5 
27/11/20  13:55    9.8    9.8    9.8    86    7.6   4.0   ENE   0.33   9.0   ENE    9.2    9.9    9.2  1015.2  0.00  0.00   0.030   0.000   30.2    34   12.6   29.7   6.48  .0718    117    1    100.0    5 
27/11/20  14:00    9.9    9.9    9.8    86    7.7   5.0   ENE   0.42  13.0     E    8.9    9.9    8.9  1015.2  0.00  0.00   0.029   0.000   30.2    34   12.6   29.7   6.48  .0718    117    1    100.0    5 
27/11/20  14:05    9.9    9.9    9.8    86    7.7   5.0   ENE   0.42  10.0   ENE    8.9    9.9    8.9  1015.1  0.00  0.00   0.029   0.000   30.2    34   12.6   29.7   6.48  .0718    116    1    100.0    5 
27/11/20  14:10    9.9    9.9    9.8    86    7.7   5.0   ENE   0.42  10.0   ENE    8.9    9.9    8.9  1015.1  0.00  0.00   0.029   0.000   30.2    34   12.6   29.7   6.48  .0718    117    1    100.0    5 
27/11/20  14:15    9.9    9.9    9.8    86    7.7   4.0   ENE   0.33   9.0     E    9.3    9.9    9.3  1015.0  0.00  0.00   0.029   0.000   30.2    34   12.6   29.7   6.48  .0718    117    1    100.0    5 
27/11/20  14:20    9.9    9.9    9.9    86    7.7   3.0    NE   0.25   8.0   ENE    9.8   10.0    9.8  1015.0  0.00  0.00   0.029   0.000   30.2    34   12.6   29.7   6.48  .0718    115    1    100.0    5 
27/11/20  14:25    9.9   10.0    9.9    86    7.7   4.0    NE   0.33  12.0   ENE    9.3   10.0    9.4  1015.0  0.00  0.00   0.029   0.000   30.2    34   12.6   29.7   6.48  .0718    117    1    100.0    5 
27/11/20  14:30   10.0   10.0    9.9    86    7.8   4.0   ENE   0.33  11.0   ENE    9.4   10.1    9.4  1015.0  0.00  0.00   0.029   0.000   30.3    34   12.7   29.8   6.48  .0717    115    1    100.0    5 
27/11/20  14:35   10.1   10.1    9.9    86    7.8   3.0    NE   0.25   8.0    NE    9.9   10.1    9.9  1014.9  0.00  0.00   0.029   0.000   30.2    34   12.6   29.7   6.48  .0717    117    1    100.0    5 
27/11/20  14:40   10.1   10.1   10.0    86    7.8   4.0    NE   0.33   9.0   ENE    9.4   10.1    9.5  1014.9  0.00  0.00   0.029   0.000   30.3    34   12.7   29.8   6.48  .0717    116    1    100.0    5 
27/11/20  14:45   10.1   10.1   10.1    86    7.8   4.0   ENE   0.33  12.0   ENE    9.4   10.1    9.5  1014.8  0.00  0.00   0.029   0.000   30.3    34   12.7   29.8   6.48  .0717    114    1    100.0    5 
27/11/20  14:50   10.1   10.1   10.0    86    7.8   4.0    NE   0.33  10.0   ENE    9.4   10.1    9.5  1014.7  0.00  0.00   0.029   0.000   30.3    33   12.3   29.7   6.38  .0717    117    1    100.0    5 
27/11/20  14:55   10.0   10.1   10.0    86    7.8   5.0    NE   0.42  10.0    NE    9.0   10.1    9.1  1014.6  0.00  0.00   0.029   0.000   30.3    33   12.3   29.7   6.38  .0717    117    1    100.0    5 
27/11/20  15:00    9.9   10.0    9.9    86    7.7   4.0    NE   0.33  11.0    NE    9.3   10.0    9.4  1014.7  0.00  0.00   0.029   0.000   30.4    33   12.3   29.7   6.38  .0717    116    1    100.0    5 
27/11/20  15:05    9.9    9.9    9.9    86    7.7   4.0    NE   0.33   8.0   ENE    9.3   10.0    9.4  1014.7  0.00  0.00   0.029   0.000   30.3    33   12.3   29.7   6.38  .0717    116    1    100.0    5 
27/11/20  15:10    9.9    9.9    9.9    87    7.9   3.0    NE   0.25   9.0   ENE    9.8   10.1    9.9  1014.7  0.00  0.00   0.029   0.000   30.3    33   12.3   29.7   6.38  .0717    116    1    100.0    5 
27/11/20  15:15    9.9    9.9    9.9    87    7.8   4.0    NE   0.33   8.0   ENE    9.3   10.0    9.4  1014.7  0.00  0.00   0.029   0.000   30.3    33   12.3   29.7   6.38  .0717    116    1    100.0    5 
27/11/20  15:20    9.8    9.9    9.8    87    7.8   4.0    NE   0.33  10.0   ENE    9.2    9.9    9.3  1014.7  0.00  0.00   0.030   0.000   30.4    33   12.3   29.7   6.38  .0717    117    1    100.0    5 
27/11/20  15:25    9.8    9.9    9.8    87    7.8   4.0    NE   0.33   8.0   ENE    9.2    9.9    9.3  1014.7  0.00  0.00   0.030   0.000   30.4    33   12.3   29.7   6.38  .0717    116    1    100.0    5 
27/11/20  15:30    9.8    9.8    9.8    87    7.8   4.0    NE   0.33   9.0   ENE    9.2    9.9    9.3  1014.8  0.00  0.00   0.030   0.000   30.4    33   12.3   29.7   6.38  .0717    118    1    100.0    5 
27/11/20  15:35    9.8    9.9    9.8    86    7.6   3.0    NE   0.25   8.0   ENE    9.6    9.9    9.7  1014.8  0.00  0.00   0.030   0.000   30.4    33   12.3   29.7   6.38  .0717    115    1    100.0    5 
27/11/20  15:40    9.8    9.8    9.8    87    7.7   4.0    NE   0.33   8.0   ENE    9.1    9.9    9.2  1014.8  0.00  0.00   0.030   0.000   30.4    33   12.3   29.7   6.38  .0717    117    1    100.0    5 
27/11/20  15:45    9.8    9.8    9.8    86    7.5   4.0    NE   0.33   9.0   ENE    9.1    9.8    9.2  1014.8  0.00  0.00   0.030   0.000   30.4    33   12.3   29.7   6.38  .0717    117    1    100.0    5 
27/11/20  15:50    9.8    9.8    9.8    87    7.7   4.0    NE   0.33   8.0   ENE    9.1    9.9    9.2  1014.7  0.00  0.00   0.030   0.000   30.4    33   12.3   29.7   6.38  .0717    116    1    100.0    5 
27/11/20  15:55    9.8    9.8    9.7    87    7.7   4.0    NE   0.33   9.0    NE    9.1    9.9    9.2  1014.7  0.00  0.00   0.030   0.000   30.4    33   12.3   29.7   6.38  .0717    115    1    100.0    5 
27/11/20  16:00    9.7    9.8    9.7    86    7.5   3.0   NNE   0.25   8.0    NE    9.5    9.8    9.6  1014.7  0.00  0.00   0.030   0.000   30.4    33   12.3   29.7   6.38  .0717    117    1    100.0    5 
27/11/20  16:05    9.7    9.7    9.7    86    7.5   3.0    NE   0.25   8.0    NE    9.5    9.8    9.6  1014.7  0.00  0.00   0.030   0.000   30.4    33   12.3   29.7   6.38  .0717    116    1    100.0    5 
27/11/20  16:10    9.7    9.7    9.7    86    7.4   4.0    NE   0.33   6.0   NNE    9.0    9.7    9.1  1014.7  0.00  0.00   0.030   0.000   30.4    33   12.3   29.7   6.38  .0717    116    1    100.0    5 
27/11/20  16:15    9.7    9.7    9.6    86    7.4   3.0    NE   0.25   6.0    NE    9.4    9.7    9.5  1014.7  0.00  0.00   0.030   0.000   30.4    33   12.3   29.7   6.38  .0717    117    1    100.0    5 
27/11/20  16:20    9.7    9.7    9.6    86    7.4   3.0    NE   0.25   7.0   ENE    9.4    9.7    9.5  1014.7  0.00  0.00   0.030   0.000   30.4    33   12.3   29.7   6.38  .0717    117    1    100.0    5 
27/11/20  16:25    9.6    9.7    9.6    86    7.4   4.0   NNE   0.33   7.0    NE    8.9    9.7    9.0  1014.7  0.00  0.00   0.030   0.000   30.4    33   12.4   29.8   6.39  .0717    114    1    100.0    5 
27/11/20  16:30    9.6    9.6    9.6    86    7.3   4.0    NE   0.33   6.0     E    8.8    9.6    8.9  1014.7  0.00  0.00   0.030   0.000   30.4    33   12.3   29.7   6.38  .0717    117    1    100.0    5 
27/11/20  16:35    9.5    9.6    9.5    86    7.3   4.0     N   0.33   8.0   ENE    8.8    9.6    8.8  1014.6  0.00  0.00   0.031   0.000   30.4    33   12.3   29.7   6.38  .0717    116    1    100.0    5 
27/11/20  16:40    9.4    9.5    9.4    86    7.2   4.0   NNE   0.33   8.0     E    8.7    9.5    8.8  1014.6  0.00  0.00   0.031   0.000   30.4    33   12.3   29.7   6.38  .0717    116    1    100.0    5 
27/11/20  16:45    9.4    9.5    9.4    86    7.2   4.0   NNE   0.33   9.0   NNE    8.7    9.5    8.8  1014.6  0.00  0.00   0.031   0.000   30.4    33   12.3   29.7   6.38  .0717    116    1    100.0    5 
27/11/20  16:50    9.4    9.4    9.4    86    7.2   3.0    NE   0.25   7.0   ENE    9.1    9.4    9.2  1014.6  0.00  0.00   0.031   0.000   30.4    33   12.3   29.7   6.38  .0717    116    1    100.0    5 
27/11/20  16:55    9.4    9.4    9.4    86    7.2   4.0    NE   0.33   8.0    NE    8.7    9.4    8.7  1014.7  0.00  0.00   0.031   0.000   30.3    33   12.3   29.7   6.38  .0717    117    1    100.0    5 
27/11/20  17:00    9.4    9.4    9.4    87    7.3   3.0     N   0.25   7.0   ENE    9.1    9.5    9.2  1014.7  0.00  0.00   0.031   0.000   30.3    33   12.3   29.7   6.38  .0717    117    1    100.0    5 
27/11/20  17:05    9.4    9.4    9.4    86    7.2   4.0     N   0.33   8.0   NNE    8.7    9.4    8.7  1014.6  0.00  0.00   0.031   0.000   30.3    33   12.2   29.6   6.38  .0717    117    1    100.0    5 
27/11/20  17:10    9.3    9.4    9.3    86    7.1   4.0   NNE   0.33  10.0   NNE    8.6    9.4    8.7  1014.6  0.00  0.00   0.031   0.000   30.3    34   12.7   29.8   6.48  .0717    116    1    100.0    5 
27/11/20  17:15    9.4    9.4    9.3    86    7.2   4.0     N   0.33   8.0   ENE    8.7    9.4    8.7  1014.6  0.00  0.00   0.031   0.000   30.2    34   12.6   29.7   6.48  .0717    116    1    100.0    5 
27/11/20  17:20    9.3    9.4    9.3    87    7.3   4.0     N   0.33   8.0     N    8.6    9.4    8.7  1014.6  0.00  0.00   0.031   0.000   30.2    34   12.6   29.7   6.48  .0717    116    1    100.0    5 
27/11/20  17:25    9.3    9.3    9.3    87    7.2   5.0   NNE   0.42  10.0    NE    8.2    9.4    8.3  1014.5  0.00  0.00   0.031   0.000   30.2    34   12.6   29.7   6.48  .0717    116    1    100.0    5 
27/11/20  17:30    9.3    9.3    9.3    87    7.2   4.0   NNE   0.33   9.0   ENE    8.6    9.4    8.7  1014.6  0.00  0.00   0.031   0.000   30.1    34   12.5   29.6   6.47  .0718    116    1    100.0    5 
27/11/20  17:35    9.3    9.3    9.3    87    7.2   4.0   NNE   0.33  10.0   ENE    8.6    9.4    8.7  1014.5  0.00  0.00   0.031   0.000   30.1    34   12.5   29.6   6.47  .0718    117    1    100.0    5 
27/11/20  17:40    9.3    9.3    9.3    87    7.2   5.0   NNE   0.42   9.0   ENE    8.2    9.4    8.3  1014.5  0.00  0.00   0.031   0.000   30.0    34   12.4   29.5   6.47  .0718    118    1    100.0    5 
27/11/20  17:45    9.3    9.3    9.2    87    7.2   4.0   NNE   0.33   8.0   NNE    8.6    9.4    8.7  1014.5  0.00  0.00   0.031   0.000   30.0    34   12.4   29.5   6.47  .0718    114    1    100.0    5 
27/11/20  17:50    9.2    9.3    9.2    87    7.2   4.0   NNE   0.33  10.0    NE    8.5    9.3    8.6  1014.5  0.00  0.00   0.032   0.000   29.9    35   12.8   29.6   6.67  .0718    117    1    100.0    5 
27/11/20  17:55    9.2    9.2    9.2    87    7.1   5.0     N   0.42   9.0   NNE    8.1    9.2    8.1  1014.6  0.00  0.00   0.032   0.000   29.9    35   12.8   29.5   6.67  .0718    116    1    100.0    5 
27/11/20  18:00    9.2    9.2    9.1    87    7.1   4.0   NNE   0.33   7.0     N    8.4    9.2    8.5  1014.6  0.00  0.00   0.032   0.000   29.8    35   12.7   29.4   6.66  .0718    116    1    100.0    5 
27/11/20  18:05    9.1    9.2    9.1    87    7.1   4.0     N   0.33   9.0     N    8.3    9.2    8.4  1014.6  0.00  0.00   0.032   0.000   29.8    35   12.7   29.4   6.66  .0718    116    1    100.0    5 
27/11/20  18:10    9.1    9.1    9.0    87    7.0   5.0     N   0.42   8.0   NNE    7.9    9.1    7.9  1014.5  0.00  0.00   0.032   0.000   29.8    35   12.7   29.4   6.66  .0718    115    1    100.0    5 
27/11/20  18:15    9.0    9.1    8.9    87    7.0   6.0     N   0.50   9.0     N    7.5    9.1    7.6  1014.5  0.00  0.00   0.032   0.000   29.8    35   12.7   29.4   6.66  .0718    116    1    100.0    5 
27/11/20  18:20    8.9    9.0    8.9    88    7.0   7.0     N   0.58  12.0     N    7.1    8.9    7.2  1014.5  0.00  0.00   0.033   0.000   29.7    35   12.6   29.3   6.66  .0718    116    1    100.0    5 
27/11/20  18:25    8.9    8.9    8.8    88    7.0   5.0     N   0.42   9.0   NNE    7.7    8.9    7.8  1014.5  0.00  0.00   0.033   0.000   29.7    35   12.6   29.3   6.66  .0718    117    1    100.0    5 
27/11/20  18:30    8.9    8.9    8.8    88    7.0   5.0   NNE   0.42  11.0    NE    7.7    8.9    7.8  1014.6  0.00  0.00   0.033   0.000   29.7    35   12.6   29.3   6.66  .0718    116    1    100.0    5 
27/11/20  18:35    8.9    8.9    8.9    88    7.0   5.0    NE   0.42  10.0    NE    7.7    8.9    7.8  1014.5  0.00  0.00   0.033   0.000   29.7    36   13.0   29.3   6.76  .0718    116    1    100.0    5 
27/11/20  18:40    8.9    8.9    8.9    88    7.0   5.0   NNE   0.42  11.0    NE    7.7    8.9    7.8  1014.6  0.00  0.00   0.033   0.000   29.7    36   13.0   29.3   6.76  .0718    117    1    100.0    5 
27/11/20  18:45    8.9    8.9    8.9    88    7.1   6.0   NNE   0.50  10.0   ENE    7.4    9.0    7.5  1014.5  0.00  0.00   0.033   0.000   29.7    36   13.0   29.3   6.76  .0718    116    1    100.0    5 
27/11/20  18:50    8.9    9.0    8.9    88    7.1   4.0   NNE   0.33   8.0   NNE    8.2    9.0    8.2  1014.5  0.00  0.00   0.033   0.000   29.7    36   13.0   29.3   6.76  .0718    116    1    100.0    5 
27/11/20  18:55    9.0    9.0    8.9    88    7.1   6.0    NE   0.50  10.0    NE    7.5    9.1    7.6  1014.4  0.00  0.00   0.032   0.000   29.7    36   13.0   29.3   6.76  .0718    115    1    100.0    5 
27/11/20  19:00    9.0    9.0    8.9    88    7.1   5.0   NNE   0.42  11.0   NNE    7.8    9.1    7.9  1014.5  0.00  0.00   0.032   0.000   29.7    36   13.0   29.3   6.76  .0718    117    1    100.0    5 
27/11/20  19:05    9.0    9.0    8.9    88    7.1   5.0   NNE   0.42  11.0    NE    7.8    9.1    7.9  1014.4  0.00  0.00   0.032   0.000   29.7    36   13.0   29.3   6.76  .0718    116    1    100.0    5 
27/11/20  19:10    9.0    9.0    8.9    88    7.1   4.0   NNE   0.33   9.0    NE    8.2    9.1    8.3  1014.5  0.00  0.00   0.032   0.000   29.7    36   13.0   29.3   6.76  .0718    116    1    100.0    5 
27/11/20  19:15    9.0    9.0    8.9    88    7.1   4.0   NNE   0.33  10.0   ENE    8.2    9.1    8.3  1014.5  0.00  0.00   0.032   0.000   29.7    36   13.0   29.3   6.76  .0718    117    1    100.0    5 
27/11/20  19:20    9.0    9.0    9.0    88    7.1   4.0   NNE   0.33  11.0    NE    8.2    9.1    8.3  1014.5  0.00  0.00   0.032   0.000   29.7    36   13.0   29.3   6.76  .0718    117    1    100.0    5 
27/11/20  19:25    9.0    9.1    8.9    88    7.1   5.0    NE   0.42  10.0   ENE    7.8    9.1    7.9  1014.4  0.00  0.00   0.032   0.000   29.7    37   13.4   29.4   7.04  .0718    117    1    100.0    5 
27/11/20  19:30    9.0    9.1    9.0    89    7.3   5.0   NNE   0.42  11.0    NE    7.8    9.1    7.9  1014.4  0.00  0.00   0.032   0.000   29.7    37   13.4   29.4   7.04  .0718    117    1    100.0    5 
27/11/20  19:35    9.1    9.1    9.0    88    7.2   5.0     N   0.42  11.0   ENE    7.9    9.1    7.9  1014.4  0.00  0.00   0.032   0.000   29.7    37   13.4   29.4   7.04  .0718    116    1    100.0    5 
27/11/20  19:40    9.1    9.1    9.1    89    7.3   5.0   NNE   0.42  10.0    NE    7.9    9.2    8.0  1014.3  0.00  0.00   0.032   0.000   29.7    37   13.4   29.4   7.04  .0718    117    1    100.0    5 
27/11/20  19:45    9.0    9.1    9.0    89    7.3   6.0    NE   0.50  13.0     E    7.5    9.1    7.6  1014.2  0.00  0.00   0.032   0.000   29.7    37   13.4   29.4   7.04  .0718    115    1    100.0    5 
27/11/20  19:50    9.0    9.1    9.0    89    7.3   5.0     N   0.42   9.0    NE    7.8    9.1    7.9  1014.1  0.00  0.00   0.032   0.000   29.7    37   13.5   29.5   7.04  .0717    117    1    100.0    5 
27/11/20  19:55    8.9    9.0    8.9    89    7.2   4.0   NNE   0.33  10.0     N    8.2    9.1    8.3  1014.2  0.00  0.00   0.033   0.000   29.7    37   13.5   29.5   7.04  .0718    117    1    100.0    5 
27/11/20  20:00    8.9    9.0    8.9    90    7.4   4.0   NNE   0.33   6.0    NE    8.2    9.1    8.3  1014.2  0.00  0.00   0.033   0.000   29.7    37   13.5   29.5   7.04  .0718    115    1    100.0    5 
27/11/20  20:05    8.9    8.9    8.9    90    7.4   4.0     N   0.33  10.0    NE    8.2    9.1    8.3  1014.1  0.00  0.00   0.033   0.000   29.7    37   13.5   29.5   7.04  .0717    116    1    100.0    5 
27/11/20  20:10    8.9    8.9    8.9    90    7.4   4.0    NE   0.33   9.0    NE    8.2    9.1    8.3  1014.0  0.01  0.00   0.033   0.000   29.8    37   13.5   29.6   7.04  .0717    116    1    100.0    5 
27/11/20  20:15    8.9    8.9    8.9    90    7.4   4.0   NNE   0.33   6.0     N    8.2    9.1    8.3  1013.9  0.00  0.00   0.033   0.000   29.8    38   14.0   29.7   7.24  .0717    116    1    100.0    5 
27/11/20  20:20    9.0    9.0    8.9    90    7.4   4.0    NE   0.33   8.0   NNE    8.2    9.1    8.3  1014.1  0.00  0.00   0.032   0.000   29.8    38   14.0   29.7   7.24  .0717    116    1    100.0    5 
27/11/20  20:25    9.1    9.1    8.9    91    7.7   5.0    NE   0.42   9.0   NNE    7.9    9.2    8.1  1014.0  0.00  0.00   0.032   0.000   29.8    38   14.0   29.7   7.24  .0717    115    1    100.0    5 
27/11/20  20:30    9.1    9.2    9.1    91    7.7   4.0   NNE   0.33   9.0   NNE    8.3    9.3    8.5  1014.1  0.00  0.00   0.032   0.000   29.9    38   14.0   29.8   7.23  .0717    117    1    100.0    5 
27/11/20  20:35    9.2    9.2    9.1    91    7.8   4.0   NNE   0.33   6.0     N    8.4    9.3    8.6  1014.2  0.00  0.00   0.032   0.000   29.9    38   14.1   29.8   7.23  .0717    117    1    100.0    5 
27/11/20  20:40    9.2    9.2    9.2    91    7.8   3.0   NNE   0.25   6.0   NNE    8.9    9.3    9.1  1014.3  0.00  0.00   0.032   0.000   29.9    38   14.1   29.8   7.23  .0717    116    1    100.0    5 
27/11/20  20:45    9.2    9.2    9.2    91    7.8   3.0     N   0.25   6.0   NNE    8.9    9.3    9.1  1014.3  0.00  0.00   0.032   0.000   30.0    38   14.1   29.9   7.23  .0716    117    1    100.0    5 
27/11/20  20:50    9.2    9.2    9.2    91    7.8   4.0    NE   0.33   7.0     E    8.5    9.4    8.7  1014.2  0.00  0.00   0.032   0.000   30.0    38   14.1   29.9   7.23  .0716    117    1    100.0    5 
27/11/20  20:55    9.2    9.3    9.2    91    7.8   3.0    NE   0.25   7.0   ENE    8.9    9.4    9.1  1014.1  0.00  0.00   0.032   0.000   30.1    38   14.2   29.9   7.23  .0716    116    1    100.0    5 
27/11/20  21:00    9.3    9.3    9.2    91    7.9   4.0    NE   0.33  11.0     E    8.6    9.4    8.7  1014.2  0.00  0.00   0.031   0.000   30.1    38   14.2   29.9   7.23  .0716    116    1    100.0    5 
27/11/20  21:05    9.3    9.3    9.2    91    7.9   4.0    NE   0.33   8.0   NNE    8.6    9.4    8.7  1014.1  0.00  0.00   0.031   0.000   30.1    38   14.2   30.1   7.23  .0716    117    1    100.0    5 
27/11/20  21:10    9.3    9.3    9.3    91    7.9   4.0    NE   0.33   8.0   ENE    8.6    9.5    8.8  1014.1  0.00  0.00   0.031   0.000   30.1    38   14.2   30.1   7.23  .0716    116    1    100.0    5 
27/11/20  21:15    9.3    9.3    9.3    92    8.1   3.0    NE   0.25   7.0    NE    9.1    9.6    9.3  1014.1  0.00  0.00   0.031   0.000   30.1    38   14.2   30.1   7.23  .0716    117    1    100.0    5 
27/11/20  21:20    9.3    9.3    9.3    92    8.1   3.0    NE   0.25  11.0    NE    9.1    9.6    9.3  1014.1  0.00  0.00   0.031   0.000   30.2    38   14.3   30.1   7.22  .0716    116    1    100.0    5 
27/11/20  21:25    9.4    9.4    9.3    92    8.2   5.0   ENE   0.42  10.0   ENE    8.3    9.6    8.5  1014.1  0.00  0.00   0.031   0.000   30.2    38   14.3   30.2   7.22  .0716    116    1    100.0    5 
27/11/20  21:30    9.4    9.4    9.4    92    8.2   6.0   ENE   0.50  13.0   ENE    8.0    9.6    8.2  1013.9  0.00  0.00   0.031   0.000   30.2    38   14.3   30.2   7.22  .0716    116    1    100.0    5 
27/11/20  21:35    9.4    9.4    9.4    92    8.2   4.0    NE   0.33  12.0    NE    8.7    9.7    8.9  1013.9  0.00  0.00   0.031   0.000   30.3    38   14.4   30.2   7.22  .0715    117    1    100.0    5 
27/11/20  21:40    9.5    9.5    9.4    92    8.3   5.0    NE   0.42  10.0   ENE    8.4    9.7    8.6  1013.8  0.00  0.00   0.031   0.000   30.3    38   14.4   30.3   7.22  .0715    117    1    100.0    5 
27/11/20  21:45    9.5    9.5    9.4    92    8.3   4.0    NE   0.33   8.0    NE    8.8    9.7    9.0  1013.8  0.00  0.00   0.031   0.000   30.3    38   14.4   30.3   7.22  .0715    116    1    100.0    5 
27/11/20  21:50    9.5    9.6    9.4    92    8.3   5.0   ENE   0.42   9.0   ENE    8.4    9.7    8.6  1013.9  0.00  0.00   0.031   0.000   30.3    37   14.0   30.2   7.02  .0715    117    1    100.0    5 
27/11/20  21:55    9.6    9.6    9.5    92    8.3   4.0   ENE   0.33  11.0   ENE    8.8    9.8    9.1  1013.9  0.00  0.00   0.030   0.000   30.4    37   14.1   30.2   7.02  .0715    116    1    100.0    5 
27/11/20  22:00    9.6    9.6    9.5    92    8.3   4.0    NE   0.33  10.0   ENE    8.8    9.8    9.1  1014.0  0.00  0.00   0.030   0.000   30.4    37   14.1   30.2   7.02  .0715    116    1    100.0    5 
27/11/20  22:05    9.6    9.6    9.6    92    8.3   5.0   ENE   0.42  10.0   ENE    8.4    9.8    8.7  1014.1  0.00  0.00   0.030   0.000   30.4    37   14.1   30.3   7.01  .0715    117    1    100.0    5 
27/11/20  22:10    9.6    9.6    9.6    92    8.4   4.0   ENE   0.33  10.0   ENE    8.9    9.8    9.2  1013.9  0.00  0.00   0.030   0.000   30.4    37   14.1   30.3   7.01  .0715    117    1    100.0    5 
27/11/20  22:15    9.7    9.7    9.6    92    8.4   4.0   ENE   0.33   9.0   ENE    9.0    9.9    9.2  1013.9  0.00  0.00   0.030   0.000   30.5    37   14.2   30.3   7.01  .0715    117    1    100.0    5 
27/11/20  22:20    9.7    9.7    9.7    92    8.4   3.0    NE   0.25   8.0   ENE    9.4    9.9    9.7  1013.9  0.00  0.00   0.030   0.000   30.6    37   14.2   30.4   7.01  .0715    117    1    100.0    5 
27/11/20  22:25    9.8    9.8    9.7    92    8.5   3.0   ENE   0.25   5.0   ENE    9.6   10.0    9.8  1014.0  0.00  0.00   0.030   0.000   30.6    37   14.3   30.4   7.01  .0715    116    1    100.0    5 
27/11/20  22:30    9.8    9.8    9.7    92    8.6   4.0   ENE   0.33  11.0   ENE    9.2   10.1    9.4  1013.9  0.00  0.00   0.030   0.000   30.6    37   14.3   30.4   7.01  .0715    115    1    100.0    5 
27/11/20  22:35   10.0   10.0    9.8    93    8.9   6.0     E   0.50  11.0     E    8.7   10.2    8.9  1013.8  0.00  0.00   0.029   0.000   30.7    37   14.3   30.4   7.01  .0714    115    1    100.0    5 
27/11/20  22:40   10.1   10.1   10.0    92    8.9   3.0   ENE   0.25  10.0   ENE    9.9   10.3   10.2  1013.8  0.00  0.00   0.029   0.000   30.7    37   14.4   30.5   7.00  .0714    116    1    100.0    5 
27/11/20  22:45   10.0   10.1   10.0    92    8.8   5.0   ENE   0.42   9.0     E    9.0   10.2    9.2  1013.8  0.00  0.00   0.029   0.000   30.8    37   14.4   30.5   7.00  .0714    117    1    100.0    5 
27/11/20  22:50   10.0   10.1   10.0    92    8.8   3.0    NE   0.25   7.0     E    9.8   10.2   10.1  1013.7  0.00  0.00   0.029   0.000   30.8    37   14.5   30.6   7.00  .0714    116    1    100.0    5 
27/11/20  22:55   10.0   10.1   10.0    92    8.8   3.0   ENE   0.25   6.0     E    9.8   10.2   10.1  1013.8  0.00  0.00   0.029   0.000   30.8    37   14.5   30.6   7.00  .0714    117    1    100.0    5 
27/11/20  23:00   10.1   10.1   10.0    92    8.8   3.0   ENE   0.25   8.0   ENE    9.9   10.3   10.1  1013.7  0.00  0.00   0.029   0.000   30.8    36   14.0   30.4   6.80  .0714    118    1    100.0    5 
27/11/20  23:05   10.1   10.1   10.0    92    8.8   3.0    NE   0.25   8.0   ENE    9.9   10.3   10.1  1013.7  0.00  0.00   0.029   0.000   30.9    36   14.1   30.4   6.80  .0714    115    1    100.0    5 
27/11/20  23:10   10.2   10.2   10.1    93    9.1   9.0     E   0.75  16.0   ESE    8.0   10.4    8.2  1013.8  0.00  0.00   0.028   0.000   30.9    36   14.1   30.5   6.80  .0714    117    1    100.0    5 
27/11/20  23:15   10.4   10.4   10.2    93    9.3  10.0     E   0.83  17.0     E    7.8   10.6    8.0  1013.9  0.00  0.00   0.028   0.000   31.0    36   14.2   30.5   6.81  .0714    117    1    100.0    5 
27/11/20  23:20   10.5   10.5   10.4    92    9.3  10.0     E   0.83  17.0     E    8.0   10.7    8.2  1013.9  0.00  0.00   0.027   0.000   31.0    36   14.2   30.5   6.81  .0714    116    1    100.0    5 
27/11/20  23:25   10.5   10.5   10.4    92    9.3  10.0     E   0.83  17.0     E    8.0   10.7    8.2  1013.9  0.00  0.00   0.027   0.000   31.0    36   14.2   30.5   6.81  .0714    115    1    100.0    5 
27/11/20  23:30   10.5   10.6   10.4    92    9.3  11.0     E   0.92  16.0     E    7.7   10.7    7.8  1014.0  0.00  0.00   0.027   0.000   31.1    36   14.2   30.6   6.81  .0714    117    1    100.0    5 
27/11/20  23:35   10.5   10.6   10.5    92    9.3  10.0     E   0.83  16.0     E    8.0   10.7    8.2  1013.9  0.00  0.00   0.027   0.000   31.1    36   14.3   30.6   6.81  .0713    115    1    100.0    5 
27/11/20  23:40   10.5   10.5   10.4    92    9.3  11.0     E   0.92  18.0     E    7.7   10.7    7.8  1013.9  0.00  0.00   0.027   0.000   31.1    36   14.3   30.6   6.81  .0713    117    1    100.0    5 
27/11/20  23:45   10.4   10.5   10.4    92    9.2  10.0     E   0.83  14.0     E    7.9   10.6    8.1  1014.0  0.00  0.00   0.027   0.000   31.2    36   14.3   30.7   6.81  .0713    117    1    100.0    5 
27/11/20  23:50   10.5   10.5   10.4    92    9.3   9.0     E   0.75  15.0     E    8.3   10.7    8.5  1014.0  0.00  0.00   0.027   0.000   31.2    35   13.9   30.6   6.71  .0714    116    1    100.0    5 
27/11/20  23:55   10.4   10.5   10.4    92    9.2   9.0     E   0.75  15.0     E    8.3   10.6    8.4  1013.9  0.00  0.00   0.027   0.000   31.2    35   13.9   30.6   6.71  .0713    117    1    100.0    5 
28/11/20  00:00   10.4   10.4   10.4    92    9.2   9.0     E   0.75  16.0     E    8.3   10.6    8.4  1014.0  0.00  0.00   0.027   0.000   31.2    35   13.9   30.6   6.71  .0713    118    1    100.0    5 
28/11/20   0:05   10.4   10.5   10.4    91    9.0  10.0     E   0.83  14.0   ESE    7.9   10.6    8.1  1014.0  0.00  0.00   0.027   0.000   31.3    35   14.0   30.7   6.72  .0713    115    1    100.0    5 
28/11/20   0:10   10.4   10.4   10.4    91    9.0  10.0     E   0.83  15.0     E    7.8   10.6    8.0  1013.9  0.00  0.00   0.028   0.000   31.3    35   14.0   30.7   6.72  .0713    117    1    100.0    5 
28/11/20   0:15   10.4   10.4   10.4    91    9.0  10.0     E   0.83  15.0     E    7.9   10.6    8.1  1013.8  0.00  0.00   0.027   0.000   31.3    35   14.0   30.7   6.72  .0713    115    1    100.0    5 
28/11/20   0:20   10.4   10.4   10.4    91    9.0  10.0     E   0.83  14.0     E    7.9   10.6    8.1  1013.8  0.00  0.00   0.027   0.000   31.3    35   14.0   30.8   6.72  .0713    115    1    100.0    5 
28/11/20   0:25   10.4   10.4   10.4    91    9.0   9.0     E   0.75  14.0     E    8.3   10.6    8.4  1013.7  0.00  0.00   0.027   0.000   31.3    35   14.0   30.7   6.72  .0713    117    1    100.0    5 
28/11/20   0:30   10.4   10.4   10.4    91    9.0   9.0     E   0.75  14.0     E    8.2   10.6    8.3  1013.6  0.00  0.00   0.028   0.000   31.3    35   14.0   30.8   6.72  .0713    116    1    100.0    5 
28/11/20   0:35   10.4   10.4   10.4    91    9.0   8.0     E   0.67  14.0   ESE    8.6   10.6    8.8  1013.6  0.00  0.00   0.027   0.000   31.3    35   14.0   30.7   6.72  .0713    117    1    100.0    5 
28/11/20   0:40   10.5   10.5   10.4    91    9.1   9.0     E   0.75  16.0     E    8.3   10.7    8.5  1013.4  0.00  0.00   0.027   0.000   31.3    35   14.0   30.8   6.72  .0713    117    1    100.0    5 
28/11/20   0:45   10.5   10.5   10.4    91    9.1   9.0     E   0.75  16.0     E    8.3   10.7    8.5  1013.4  0.00  0.00   0.027   0.000   31.3    34   13.6   30.7   6.52  .0713    117    1    100.0    5 
28/11/20   0:50   10.4   10.5   10.4    91    9.0  12.0     E   1.00  18.0     E    7.3   10.6    7.5  1013.4  0.00  0.00   0.027   0.000   31.3    34   13.6   30.7   6.52  .0713    116    1    100.0    5 
28/11/20   0:55   10.4   10.5   10.4    91    9.0   9.0     E   0.75  15.0     E    8.3   10.6    8.4  1013.4  0.00  0.00   0.027   0.000   31.3    34   13.6   30.7   6.52  .0713    116    1    100.0    5 
28/11/20   1:00   10.3   10.4   10.3    91    8.9   8.0     E   0.67  14.0     E    8.4   10.5    8.6  1013.4  0.00  0.00   0.028   0.000   31.3    34   13.5   30.6   6.52  .0713    116    1    100.0    5 
28/11/20   1:05   10.3   10.4   10.3    91    8.9  10.0     E   0.83  16.0     E    7.7   10.4    7.9  1013.5  0.00  0.00   0.028   0.000   31.3    34   13.5   30.6   6.52  .0713    115    1    100.0    5 
28/11/20   1:10   10.3   10.3   10.3    91    8.9   8.0     E   0.67  14.0     E    8.4   10.4    8.6  1013.5  0.00  0.00   0.028   0.000   31.3    34   13.5   30.6   6.52  .0713    117    1    100.0    5 
28/11/20   1:15   10.3   10.3   10.3    91    8.9  10.0     E   0.83  14.0     E    7.7   10.4    7.9  1013.5  0.00  0.00   0.028   0.000   31.3    34   13.5   30.6   6.52  .0713    117    1    100.0    5 
28/11/20   1:20   10.3   10.3   10.3    91    8.9  10.0     E   0.83  16.0     E    7.7   10.4    7.9  1013.6  0.00  0.00   0.028   0.000   31.3    34   13.5   30.6   6.52  .0713    117    1    100.0    5 
28/11/20   1:25   10.3   10.3   10.3    91    8.9  12.0     E   1.00  17.0     E    7.1   10.4    7.3  1013.6  0.00  0.00   0.028   0.000   31.3    34   13.5   30.6   6.52  .0713    115    1    100.0    5 
28/11/20   1:30   10.3   10.3   10.3    91    8.9  11.0     E   0.92  18.0     E    7.4   10.4    7.6  1013.6  0.00  0.00   0.028   0.000   31.3    34   13.5   30.6   6.52  .0713    116    1    100.0    5 
28/11/20   1:35   10.3   10.3   10.3    91    8.9  12.0     E   1.00  18.0     E    7.2   10.5    7.4  1013.7  0.00  0.00   0.028   0.000   31.3    34   13.5   30.6   6.52  .0713    116    1    100.0    5 
28/11/20   1:40   10.3   10.4   10.3    91    8.9  13.0     E   1.08  18.0     E    7.0   10.5    7.2  1013.6  0.00  0.00   0.028   0.000   31.2    34   13.5   30.5   6.51  .0714    117    1    100.0    5 
28/11/20   1:45   10.3   10.4   10.3    91    8.9  11.0     E   0.92  17.0     E    7.5   10.5    7.7  1013.7  0.00  0.00   0.028   0.000   31.2    34   13.5   30.5   6.51  .0714    116    1    100.0    5 
28/11/20   1:50   10.3   10.4   10.3    91    8.9  12.0     E   1.00  18.0     E    7.2   10.5    7.4  1013.7  0.00  0.00   0.028   0.000   31.2    34   13.5   30.5   6.51  .0714    114    1    100.0    5 
28/11/20   1:55   10.3   10.4   10.3    91    8.9  13.0   ESE   1.08  19.0     E    7.0   10.5    7.2  1013.7  0.00  0.00   0.028   0.000   31.2    34   13.5   30.5   6.51  .0714    115    1    100.0    5 
28/11/20   2:00   10.3   10.4   10.3    91    8.9  11.0     E   0.92  19.0     E    7.5   10.5    7.7  1013.8  0.00  0.00   0.028   0.000   31.2    34   13.5   30.5   6.51  .0714    116    1    100.0    5 
28/11/20   2:05   10.4   10.4   10.3    91    9.0  13.0   ESE   1.08  18.0     E    7.1   10.6    7.2  1013.7  0.00  0.00   0.028   0.000   31.2    34   13.5   30.5   6.51  .0714    114    1    100.0    5 
28/11/20   2:10   10.3   10.4   10.3    91    8.9  11.0     E   0.92  17.0     E    7.5   10.5    7.7  1013.8  0.00  0.00   0.028   0.000   31.2    34   13.4   30.4   6.51  .0714    117    1    100.0    5 
28/11/20   2:15   10.4   10.4   10.3    91    9.0  12.0     E   1.00  16.0     E    7.3   10.6    7.4  1013.8  0.00  0.00   0.028   0.000   31.2    34   13.4   30.4   6.51  .0714    113    1     99.1    5 
28/11/20   2:20   10.3   10.4   10.3    91    8.9  10.0     E   0.83  17.0     E    7.8   10.5    7.9  1013.8  0.00  0.00   0.028   0.000   31.2    34   13.4   30.4   6.51  .0714    117    1    100.0    5 
28/11/20   2:25   10.3   10.3   10.3    91    8.9  11.0     E   0.92  16.0     E    7.4   10.4    7.6  1013.7  0.00  0.00   0.028   0.000   31.1    34   13.4   30.3   6.51  .0714    117    1    100.0    5 
28/11/20   2:30   10.3   10.3   10.3    91    8.9  10.0     E   0.83  15.0     E    7.8   10.5    7.9  1013.7  0.00  0.00   0.028   0.000   31.1    34   13.4   30.3   6.51  .0714    116    1    100.0    5 
28/11/20   2:35   10.3   10.3   10.3    91    8.9  11.0     E   0.92  16.0     E    7.4   10.4    7.6  1013.7  0.00  0.00   0.028   0.000   31.1    34   13.4   30.3   6.51  .0714    117    1    100.0    5 
28/11/20   2:40   10.3   10.3   10.2    91    8.9  11.0     E   0.92  18.0     E    7.4   10.4    7.6  1013.5  0.00  0.00   0.028   0.000   31.1    34   13.4   30.3   6.51  .0714    117    1    100.0    5 
28/11/20   2:45   10.2   10.3   10.2    91    8.8  10.0     E   0.83  15.0     E    7.7   10.4    7.8  1013.5  0.00  0.00   0.028   0.000   31.1    34   13.4   30.3   6.51  .0714    115    1    100.0    5 
28/11/20   2:50   10.2   10.3   10.2    91    8.8  10.0     E   0.83  17.0     E    7.7   10.4    7.8  1013.4  0.00  0.00   0.028   0.000   31.1    34   13.3   30.3   6.51  .0714    117    1    100.0    5 
28/11/20   2:55   10.2   10.3   10.2    91    8.8   9.0     E   0.75  14.0     E    8.0   10.4    8.2  1013.5  0.00  0.00   0.028   0.000   31.1    34   13.3   30.3   6.51  .0714    117    1    100.0    5 
28/11/20   3:00   10.2   10.2   10.2    92    9.0   9.0     E   0.75  16.0     E    8.0   10.4    8.2  1013.4  0.00  0.00   0.028   0.000   31.1    34   13.3   30.3   6.51  .0714    117    1    100.0    5 
28/11/20   3:05   10.2   10.2   10.2    92    9.0   9.0     E   0.75  16.0     E    8.0   10.4    8.2  1013.3  0.00  0.00   0.028   0.000   31.1    34   13.3   30.3   6.51  .0714    115    1    100.0    5 
28/11/20   3:10   10.2   10.2   10.2    92    9.0   8.0     E   0.67  14.0     E    8.3   10.4    8.5  1013.3  0.00  0.00   0.028   0.000   31.1    34   13.3   30.3   6.51  .0714    116    1    100.0    5 
28/11/20   3:15   10.2   10.2   10.2    92    9.0   7.0     E   0.58  13.0     E    8.7   10.4    8.9  1013.4  0.00  0.00   0.028   0.000   31.0    34   13.3   30.3   6.51  .0714    114    1    100.0    5 
28/11/20   3:20   10.3   10.3   10.2    92    9.0   7.0   ENE   0.58  14.0     E    8.8   10.4    8.9  1013.5  0.00  0.00   0.028   0.000   31.0    34   13.3   30.3   6.51  .0714    116    1    100.0    5 
28/11/20   3:25   10.3   10.3   10.2    92    9.0   7.0     E   0.58  14.0     E    8.8   10.4    8.9  1013.5  0.00  0.00   0.028   0.000   31.0    34   13.3   30.3   6.51  .0714    117    1    100.0    5 
28/11/20   3:30   10.3   10.3   10.3    92    9.1   8.0     E   0.67  15.0     E    8.4   10.5    8.6  1013.5  0.00  0.00   0.028   0.000   30.9    34   13.3   30.2   6.50  .0714    116    1    100.0    5 
28/11/20   3:35   10.3   10.4   10.3    92    9.1   7.0     E   0.58  11.0   ENE    8.8   10.5    9.0  1013.5  0.00  0.00   0.028   0.000   30.9    34   13.3   30.2   6.50  .0714    117    1    100.0    5 
28/11/20   3:40   10.4   10.4   10.3    92    9.1   6.0     E   0.50  13.0     E    9.2   10.6    9.3  1013.5  0.00  0.00   0.028   0.000   30.9    34   13.3   30.2   6.50  .0714    117    1    100.0    5 
28/11/20   3:45   10.4   10.4   10.4    92    9.1   6.0     E   0.50  11.0   ENE    9.2   10.6    9.3  1013.4  0.00  0.00   0.028   0.000   30.9    34   13.3   30.2   6.50  .0714    117    1    100.0    5 
28/11/20   3:50   10.4   10.4   10.4    92    9.2   7.0     E   0.58  15.0     E    9.0   10.6    9.2  1013.4  0.00  0.00   0.027   0.000   30.9    34   13.3   30.2   6.50  .0714    116    1    100.0    5 
28/11/20   3:55   10.4   10.4   10.4    92    9.2   6.0     E   0.50  13.0     E    9.3   10.6    9.4  1013.3  0.00  0.00   0.027   0.000   30.9    34   13.3   30.2   6.50  .0714    116    1    100.0    5 
28/11/20   4:00   10.5   10.5   10.4    92    9.3   6.0   ENE   0.50  12.0   ENE    9.3   10.7    9.5  1013.3  0.00  0.00   0.027   0.000   30.9    34   13.3   30.2   6.50  .0714    117    1    100.0    5 
28/11/20   4:05   10.5   10.5   10.4    92    9.3   6.0   ENE   0.50  14.0   ENE    9.3   10.7    9.5  1013.3  0.00  0.00   0.027   0.000   30.9    34   13.3   30.2   6.50  .0714    117    1    100.0    5 
28/11/20   4:10   10.5   10.5   10.4    92    9.3   5.0   ENE   0.42  10.0   ENE    9.6   10.7    9.8  1013.2  0.00  0.00   0.027   0.000   30.9    34   13.3   30.2   6.50  .0714    117    1    100.0    5 
28/11/20   4:15   10.4   10.5   10.4    92    9.2   6.0   ENE   0.50  11.0     E    9.3   10.6    9.4  1013.3  0.00  0.00   0.027   0.000   30.9    34   13.3   30.2   6.50  .0714    114    1    100.0    5 
28/11/20   4:20   10.4   10.5   10.4    92    9.2   4.0   ENE   0.33  11.0    NE    9.9   10.6   10.1  1013.3  0.00  0.00   0.027   0.000   30.9    34   13.3   30.2   6.50  .0714    115    1    100.0    5 
28/11/20   4:25   10.4   10.5   10.4    92    9.2   5.0     E   0.42  10.0     E    9.6   10.6    9.7  1013.5  0.00  0.00   0.027   0.000   30.9    34   13.2   30.2   6.50  .0714    117    1    100.0    5 
28/11/20   4:30   10.5   10.5   10.4    92    9.3   6.0   ENE   0.50  11.0   ENE    9.3   10.7    9.5  1013.5  0.00  0.00   0.027   0.000   30.9    34   13.2   30.2   6.50  .0715    116    1    100.0    5 
28/11/20   4:35   10.6   10.6   10.5    92    9.3   5.0   ENE   0.42  10.0     E    9.7   10.7    9.8  1013.5  0.00  0.00   0.027   0.000   30.9    34   13.2   30.2   6.50  .0714    117    1    100.0    5 
28/11/20   4:40   10.5   10.6   10.5    92    9.3   4.0     E   0.33   9.0   ENE    9.9   10.7   10.1  1013.6  0.00  0.00   0.027   0.000   30.8    34   13.2   30.2   6.50  .0715    118    1    100.0    5 
28/11/20   4:45   10.5   10.6   10.5    92    9.3   5.0   ENE   0.42   9.0     E    9.6   10.7    9.8  1013.7  0.00  0.00   0.027   0.000   30.8    34   13.2   30.2   6.50  .0715    117    1    100.0    5 
28/11/20   4:50   10.6   10.6   10.5    92    9.3   5.0   ENE   0.42  13.0     E    9.7   10.7    9.8  1013.8  0.00  0.00   0.027   0.000   30.8    34   13.1   30.1   6.50  .0715    117    1    100.0    5 
28/11/20   4:55   10.6   10.6   10.6    92    9.3   5.0     E   0.42  10.0     E    9.7   10.7    9.8  1013.8  0.00  0.00   0.027   0.000   30.8    34   13.1   30.1   6.50  .0715    117    1    100.0    5 
28/11/20   5:00   10.6   10.6   10.6    92    9.3   7.0     E   0.58  11.0     E    9.1   10.7    9.3  1013.8  0.00  0.00   0.027   0.000   30.8    34   13.1   30.1   6.50  .0715    115    1    100.0    5 
28/11/20   5:05   10.6   10.6   10.6    92    9.4   6.0     E   0.50  11.0   ENE    9.4   10.8    9.6  1013.8  0.00  0.00   0.027   0.000   30.8    34   13.1   30.1   6.50  .0715    115    1    100.0    5 
28/11/20   5:10   10.7   10.7   10.6    92    9.4   6.0     E   0.50  11.0     E    9.5   10.8    9.7  1013.8  0.00  0.00   0.027   0.000   30.8    34   13.1   30.1   6.50  .0715    115    1    100.0    5 
28/11/20   5:15   10.7   10.7   10.6    92    9.4   8.0     E   0.67  13.0     E    8.8   10.8    9.0  1013.8  0.00  0.00   0.027   0.000   30.7    34   13.1   30.1   6.50  .0715    115    1    100.0    5 
28/11/20   5:20   10.7   10.7   10.7    92    9.5   6.0     E   0.50  10.0   ENE    9.6   10.9    9.7  1013.8  0.00  0.00   0.026   0.000   30.7    34   13.1   30.1   6.50  .0715    117    1    100.0    5 
28/11/20   5:25   10.7   10.7   10.7    92    9.4   6.0   ENE   0.50  15.0     E    9.5   10.8    9.7  1013.8  0.00  0.00   0.027   0.000   30.7    34   13.1   30.1   6.50  .0715    115    1    100.0    5 
28/11/20   5:30   10.7   10.7   10.6    93    9.6   7.0     E   0.58  14.0     E    9.2   10.8    9.4  1013.8  0.00  0.00   0.027   0.000   30.7    34   13.0   30.1   6.49  .0715    116    1    100.0    5 
28/11/20   5:35   10.7   10.7   10.7    93    9.6   8.0     E   0.67  16.0     E    8.9   10.9    9.1  1013.8  0.00  0.00   0.026   0.000   30.7    34   13.0   30.1   6.49  .0715    116    1    100.0    5 
28/11/20   5:40   10.7   10.7   10.7    93    9.6   9.0     E   0.75  14.0     E    8.6   10.9    8.7  1013.7  0.00  0.00   0.026   0.000   30.7    34   13.0   30.1   6.49  .0715    116    1    100.0    5 
28/11/20   5:45   10.7   10.7   10.7    93    9.6  10.0     E   0.83  15.0     E    8.2   10.9    8.4  1013.7  0.00  0.00   0.026   0.000   30.7    34   13.0   30.1   6.49  .0715    116    1    100.0    5 
28/11/20   5:50   10.7   10.7   10.7    93    9.6   9.0     E   0.75  14.0     E    8.6   10.9    8.7  1013.7  0.00  0.00   0.026   0.000   30.6    34   13.0   30.1   6.49  .0715    115    1    100.0    5 
28/11/20   5:55   10.7   10.7   10.7    93    9.6  10.0     E   0.83  17.0     E    8.2   10.9    8.4  1013.7  0.00  0.00   0.026   0.000   30.6    34   13.0   30.1   6.49  .0715    116    1    100.0    5 
28/11/20   6:00   10.7   10.7   10.7    93    9.6   9.0     E   0.75  16.0     E    8.6   10.9    8.7  1013.8  0.00  0.00   0.026   0.000   30.6    34   13.0   30.1   6.49  .0716    117    1    100.0    5 
28/11/20   6:05   10.8   10.8   10.7    93    9.7  11.0     E   0.92  17.0     E    8.0   10.9    8.2  1013.8  0.00  0.00   0.026   0.000   30.6    34   12.9   30.0   6.49  .0716    116    1    100.0    5 
28/11/20   6:10   10.8   10.8   10.7    93    9.7  10.0     E   0.83  15.0     E    8.3   10.9    8.4  1013.9  0.00  0.00   0.026   0.000   30.6    34   12.9   30.0   6.49  .0716    116    1    100.0    5 
28/11/20   6:15   10.8   10.8   10.8    93    9.7  10.0     E   0.83  15.0     E    8.3   10.9    8.4  1013.9  0.00  0.00   0.026   0.000   30.6    34   12.9   30.0   6.49  .0716    115    1    100.0    5 
28/11/20   6:20   10.8   10.8   10.8    93    9.7   9.0     E   0.75  15.0     E    8.6   10.9    8.8  1014.0  0.00  0.00   0.026   0.000   30.6    34   12.9   30.0   6.49  .0716    117    1    100.0    5 
28/11/20   6:25   10.8   10.8   10.8    93    9.7   9.0     E   0.75  14.0     E    8.6   10.9    8.8  1014.1  0.00  0.00   0.026   0.000   30.6    34   12.9   30.0   6.49  .0716    117    1    100.0    5 
28/11/20   6:30   10.8   10.8   10.8    93    9.7   8.0     E   0.67  15.0     E    9.0   10.9    9.2  1014.1  0.00  0.00   0.026   0.000   30.5    34   12.9   29.9   6.49  .0716    116    1    100.0    5 
28/11/20   6:35   10.8   10.8   10.8    93    9.7   8.0     E   0.67  13.0     E    9.0   10.9    9.2  1014.2  0.00  0.00   0.026   0.000   30.5    34   12.9   29.9   6.49  .0716    116    1    100.0    5 
28/11/20   6:40   10.8   10.8   10.8    93    9.7   9.0     E   0.75  13.0     E    8.7   11.0    8.9  1014.2  0.00  0.00   0.026   0.000   30.4    34   12.8   29.9   6.49  .0716    115    1    100.0    5 
28/11/20   6:45   10.8   10.8   10.8    93    9.7   9.0     E   0.75  17.0     E    8.7   11.0    8.9  1014.3  0.00  0.00   0.026   0.000   30.4    34   12.8   29.9   6.49  .0716    116    1    100.0    5 
28/11/20   6:50   10.8   10.9   10.8    93    9.7   9.0     E   0.75  15.0     E    8.7   11.0    8.9  1014.3  0.00  0.00   0.026   0.000   30.4    34   12.8   29.9   6.49  .0716    114    1    100.0    5 
28/11/20   6:55   10.8   10.8   10.8    93    9.7  10.0     E   0.83  16.0     E    8.4   11.0    8.6  1014.3  0.00  0.00   0.026   0.000   30.4    34   12.8   29.9   6.49  .0716    115    1    100.0    5 
28/11/20   7:00   10.8   10.9   10.8    93    9.7  11.0     E   0.92  15.0     E    8.1   11.0    8.2  1014.4  0.00  0.00   0.026   0.000   30.4    34   12.8   29.8   6.48  .0717    115    1    100.0    5 
28/11/20   7:05   10.8   10.8   10.8    93    9.7  10.0     E   0.83  15.0     E    8.4   11.0    8.6  1014.3  0.00  0.00   0.026   0.000   30.4    34   12.8   29.8   6.48  .0717    116    1    100.0    5 
28/11/20   7:10   10.8   10.9   10.8    93    9.7   9.0     E   0.75  15.0   ESE    8.7   11.0    8.9  1014.4  0.00  0.00   0.026   0.000   30.4    34   12.8   29.8   6.48  .0717    117    1    100.0    5 
28/11/20   7:15   10.9   10.9   10.8    93    9.8   8.0     E   0.67  14.0     E    9.1   11.1    9.3  1014.5  0.00  0.00   0.026   0.000   30.4    34   12.8   29.8   6.48  .0717    113    1     99.1    5 
28/11/20   7:20   10.8   10.9   10.8    93    9.7   9.0     E   0.75  15.0     E    8.7   11.0    8.9  1014.5  0.00  0.00   0.026   0.000   30.4    34   12.8   29.8   6.48  .0717    117    1    100.0    5 
28/11/20   7:25   10.9   10.9   10.8    93    9.8   8.0     E   0.67  13.0     E    9.1   11.1    9.3  1014.5  0.00  0.00   0.026   0.000   30.4    34   12.8   29.8   6.48  .0717    117    1    100.0    5 
28/11/20   7:30   10.8   10.9   10.8    93    9.7   8.0     E   0.67  15.0     E    9.1   11.0    9.2  1014.5  0.00  0.00   0.026   0.000   30.3    34   12.7   29.8   6.48  .0717    117    1    100.0    5 
28/11/20   7:35   10.9   10.9   10.8    93    9.8  10.0     E   0.83  15.0     E    8.4   11.1    8.6  1014.5  0.00  0.00   0.026   0.000   30.3    34   12.7   29.8   6.48  .0717    114    1    100.0    5 
28/11/20   7:40   10.9   10.9   10.8    93    9.8  10.0     E   0.83  14.0     E    8.4   11.1    8.6  1014.6  0.00  0.00   0.026   0.000   30.3    34   12.7   29.8   6.48  .0717    117    1    100.0    5 
28/11/20   7:45   10.9   10.9   10.9    93    9.8   9.0     E   0.75  16.0     E    8.8   11.1    8.9  1014.6  0.00  0.00   0.026   0.000   30.3    34   12.7   29.8   6.48  .0717    116    1    100.0    5 
28/11/20   7:50   10.9   10.9   10.9    93    9.8   9.0     E   0.75  17.0     E    8.8   11.1    8.9  1014.6  0.00  0.00   0.026   0.000   30.3    34   12.7   29.8   6.48  .0717    117    1    100.0    5 
28/11/20   7:55   10.8   10.9   10.8    93    9.7   9.0     E   0.75  15.0     E    8.7   11.0    8.9  1014.7  0.00  0.00   0.026   0.000   30.3    34   12.7   29.8   6.48  .0717    117    1    100.0    5 
28/11/20   8:00   10.8   10.9   10.8    93    9.7   8.0     E   0.67  15.0     E    9.1   11.0    9.2  1014.6  0.00  0.00   0.026   0.000   30.3    34   12.7   29.8   6.48  .0717    113    1     99.1    5 
28/11/20   8:05   10.8   10.9   10.8    93    9.7   7.0   ENE   0.58  15.0     E    9.4   11.0    9.6  1014.7  0.00  0.00   0.026   0.000   30.2    34   12.6   29.7   6.48  .0717    117    1    100.0    5 
28/11/20   8:10   10.8   10.9   10.8    93    9.7   7.0   ENE   0.58  14.0   ENE    9.4   11.0    9.6  1014.8  0.00  0.00   0.026   0.000   30.2    34   12.6   29.7   6.48  .0717    116    1    100.0    5 
28/11/20   8:15   10.8   10.8   10.8    93    9.7   6.0     E   0.50  11.0   ENE    9.7   11.0    9.9  1014.8  0.00  0.00   0.026   0.000   30.2    34   12.6   29.7   6.48  .0717    115    1    100.0    5 
28/11/20   8:20   10.8   10.8   10.8    93    9.7   6.0   ENE   0.50  13.0     E    9.6   10.9    9.8  1014.8  0.00  0.00   0.026   0.000   30.2    34   12.6   29.7   6.48  .0717    116    1    100.0    5 
28/11/20   8:25   10.8   10.8   10.8    93    9.7   6.0   ENE   0.50  13.0     E    9.6   10.9    9.8  1014.8  0.00  0.00   0.026   0.000   30.2    34   12.6   29.7   6.48  .0717    116    1    100.0    5 
28/11/20   8:30   10.7   10.8   10.7    93    9.6   6.0   ENE   0.50  11.0   ENE    9.6   10.9    9.7  1014.9  0.00  0.00   0.026   0.000   30.2    34   12.6   29.7   6.48  .0718    116    1    100.0    5 
28/11/20   8:35   10.7   10.7   10.7    93    9.6   4.0   ENE   0.33   8.0   ENE   10.1   10.8   10.3  1014.9  0.00  0.00   0.027   0.000   30.2    34   12.6   29.7   6.48  .0718    116    1    100.0    5 
28/11/20   8:40   10.6   10.7   10.6    93    9.5   4.0   ENE   0.33   8.0   ENE   10.0   10.7   10.2  1015.0  0.00  0.00   0.027   0.000   30.2    34   12.6   29.7   6.48  .0718    117    1    100.0    5 
28/11/20   8:45   10.6   10.6   10.6    93    9.5   5.0   ENE   0.42  10.0     E    9.7   10.7    9.8  1015.0  0.00  0.00   0.027   0.000   30.1    34   12.5   29.6   6.47  .0718    116    1    100.0    5 
28/11/20   8:50   10.6   10.6   10.6    93    9.5   5.0   ENE   0.42  10.0   ENE    9.7   10.7    9.8  1015.1  0.00  0.00   0.027   0.000   30.1    34   12.5   29.6   6.47  .0718    116    1    100.0    5 
28/11/20   8:55   10.6   10.6   10.6    93    9.5   4.0   ENE   0.33   8.0   ENE   10.0   10.7   10.2  1015.1  0.00  0.00   0.027   0.000   30.1    34   12.5   29.6   6.47  .0718    117    1    100.0    5 
28/11/20   9:00   10.5   10.6   10.5    93    9.4   3.0   ENE   0.25   8.0   ENE   10.4   10.7   10.6  1015.1  0.00  0.00   0.027   0.000   30.1    35   12.9   29.7   6.67  .0718    116    1    100.0    5 
28/11/20   9:05   10.5   10.6   10.4    93    9.4   3.0   ENE   0.25   8.0   ENE   10.4   10.7   10.6  1015.2  0.00  0.00   0.027   0.000   30.1    35   12.9   29.7   6.67  .0718    113    1     99.1    5 
28/11/20   9:10   10.6   10.6   10.4    93    9.5   3.0    NE   0.25   8.0   ENE   10.4   10.7   10.6  1015.2  0.00  0.00   0.027   0.000   30.0    35   12.9   29.6   6.67  .0718    115    1    100.0    5 
28/11/20   9:15   10.7   10.7   10.5    93    9.6   3.0   ENE   0.25   7.0   ENE   10.6   10.8   10.7  1015.3  0.00  0.00   0.027   0.000   29.9    35   12.8   29.6   6.67  .0718    117    1    100.0    5 
28/11/20   9:20   10.7   10.8   10.6    93    9.6   3.0    NE   0.25  10.0   ENE   10.6   10.9   10.8  1015.3  0.00  0.00   0.026   0.000   29.9    35   12.8   29.5   6.67  .0718    115    1    100.0    5 
28/11/20   9:25   10.8   10.8   10.7    93    9.7   3.0    NE   0.25   7.0   ENE   10.8   11.0   10.9  1015.4  0.00  0.00   0.026   0.000   29.9    35   12.8   29.5   6.67  .0718    117    1    100.0    5 
28/11/20   9:30   10.9   10.9   10.8    93    9.8   4.0    NE   0.33   7.0   ENE   10.4   11.1   10.6  1015.3  0.00  0.00   0.026   0.000   29.8    35   12.7   29.4   6.66  .0719    115    1    100.0    5 
28/11/20   9:35   11.1   11.1   10.9    93   10.0   3.0    NE   0.25   6.0     N   11.0   11.2   11.2  1015.3  0.00  0.00   0.025   0.000   29.8    35   12.7   29.4   6.66  .0719    117    1    100.0    5 
28/11/20   9:40   11.2   11.2   11.1    93   10.1   4.0    NE   0.33   9.0   ENE   10.7   11.3   10.9  1015.3  0.00  0.00   0.025   0.000   29.8    36   13.2   29.6   6.76  .0718    117    1    100.0    5 
28/11/20   9:45   11.2   11.2   11.1    92    9.9   4.0    NE   0.33   9.0   ENE   10.7   11.3   10.8  1015.4  0.00  0.00   0.025   0.000   29.8    36   13.1   29.4   6.76  .0719    117    1    100.0    5 
28/11/20   9:50   11.3   11.3   11.2    92   10.1   4.0    NE   0.33   9.0   ENE   10.9   11.4   11.0  1015.4  0.00  0.00   0.024   0.000   29.8    36   13.1   29.4   6.76  .0719    116    1    100.0    5 
28/11/20   9:55   11.4   11.4   11.3    92   10.1   4.0    NE   0.33   8.0   ENE   11.0   11.5   11.1  1015.5  0.00  0.00   0.024   0.000   29.8    36   13.1   29.4   6.76  .0719    116    1    100.0    5 
28/11/20  10:00   11.5   11.6   11.4    92   10.2   4.0   ENE   0.33   7.0     E   11.1   11.6   11.2  1015.5  0.00  0.00   0.024   0.000   29.8    36   13.1   29.4   6.76  .0719    117    1    100.0    5 
28/11/20  10:05   11.6   11.7   11.5    92   10.4   4.0   ENE   0.33  10.0     E   11.2   11.7   11.3  1015.6  0.00  0.00   0.023   0.000   29.7    36   13.1   29.4   6.76  .0719    117    1    100.0    5 
28/11/20  10:10   11.8   11.8   11.6    92   10.5   5.0     E   0.42  10.0     E   11.1   11.9   11.2  1015.6  0.00  0.00   0.023   0.000   29.7    36   13.1   29.4   6.76  .0719    116    1    100.0    5 
28/11/20  10:15   11.9   11.9   11.8    92   10.7   4.0   ENE   0.33   8.0     E   11.6   12.1   11.7  1015.5  0.00  0.00   0.022   0.000   29.8    37   13.5   29.6   7.04  .0718    117    1    100.0    5 
28/11/20  10:20   12.1   12.1   11.9    91   10.6   6.0   ENE   0.50  10.0   ENE   11.1   12.1   11.2  1015.6  0.00  0.00   0.022   0.000   29.7    37   13.5   29.5   7.04  .0719    117    1    100.0    5 
28/11/20  10:25   12.1   12.1   12.0    91   10.6   6.0   ENE   0.50  14.0     E   11.1   12.1   11.2  1015.7  0.00  0.00   0.022   0.000   29.7    37   13.5   29.5   7.04  .0719    116    1    100.0    5 
28/11/20  10:30   12.2   12.2   12.1    91   10.8   7.0     E   0.58  11.0     E   11.1   12.3   11.2  1015.8  0.00  0.00   0.021   0.000   29.7    37   13.5   29.5   7.04  .0719    117    1    100.0    5 
28/11/20  10:35   12.3   12.3   12.2    90   10.7   6.0     E   0.50  11.0     E   11.4   12.4   11.5  1015.8  0.00  0.00   0.021   0.000   29.8    37   13.5   29.6   7.04  .0719    117    1    100.0    5 
28/11/20  10:40   12.4   12.4   12.3    90   10.8   6.0   ENE   0.50  13.0   ENE   11.6   12.4   11.6  1015.7  0.00  0.00   0.021   0.000   29.8    37   13.5   29.6   7.04  .0718    117    1    100.0    5 
28/11/20  10:45   12.3   12.4   12.3    90   10.7   6.0   ENE   0.50  12.0   ENE   11.4   12.4   11.5  1015.8  0.00  0.00   0.021   0.000   29.8    37   13.6   29.6   7.04  .0718    117    1    100.0    5 
28/11/20  10:50   12.4   12.4   12.3    90   10.8   6.0     E   0.50  10.0   ENE   11.6   12.5   11.7  1015.8  0.00  0.00   0.020   0.000   29.8    37   13.6   29.6   7.04  .0718    117    1    100.0    5 
28/11/20  10:55   12.5   12.5   12.4    90   10.9   6.0   ENE   0.50  13.0     E   11.7   12.6   11.7  1015.8  0.00  0.00   0.020   0.000   29.9    37   13.6   29.7   7.03  .0718    113    1     99.1    5 
28/11/20  11:00   12.5   12.5   12.4    89   10.7   6.0     E   0.50  10.0   ENE   11.7   12.6   11.7  1015.9  0.00  0.00   0.020   0.000   29.9    37   13.6   29.7   7.03  .0718    116    1    100.0    5 
28/11/20  11:05   12.6   12.6   12.5    89   10.8   7.0     E   0.58  11.0     E   11.6   12.7   11.6  1015.8  0.00  0.00   0.020   0.000   29.9    37   13.7   29.8   7.03  .0718    117    1    100.0    5 
28/11/20  11:10   12.7   12.7   12.6    89   10.9   7.0     E   0.58  14.0     E   11.7   12.7   11.7  1015.8  0.00  0.00   0.020   0.000   30.0    37   13.7   29.8   7.03  .0718    117    1    100.0    5 
28/11/20  11:15   12.7   12.7   12.6    89   11.0   7.0     E   0.58  13.0     E   11.7   12.8   11.8  1015.8  0.00  0.00   0.019   0.000   30.1    37   13.8   29.9   7.03  .0718    117    1    100.0    5 
28/11/20  11:20   12.7   12.8   12.7    89   11.0   8.0     E   0.67  11.0     E   11.3   12.8   11.4  1015.8  0.00  0.00   0.019   0.000   30.1    37   13.8   29.9   7.03  .0717    117    1    100.0    5 
28/11/20  11:25   12.8   12.8   12.8    88   10.8   7.0     E   0.58  13.0     E   11.8   12.8   11.8  1015.8  0.00  0.00   0.019   0.000   30.1    37   13.8   29.9   7.03  .0718    116    1    100.0    5 
28/11/20  11:30   12.8   12.8   12.8    88   10.9   8.0     E   0.67  13.0     E   11.4   12.8   11.4  1015.8  0.00  0.00   0.019   0.000   30.2    37   13.9   30.0   7.02  .0717    117    1    100.0    5 
28/11/20  11:35   12.8   12.8   12.8    88   10.9   9.0     E   0.75  14.0     E   11.1   12.8   11.1  1015.8  0.00  0.00   0.019   0.000   30.2    37   13.9   30.1   7.02  .0717    117    1    100.0    5 
28/11/20  11:40   12.9   12.9   12.8    88   10.9   9.0     E   0.75  14.0     E   11.1   12.9   11.1  1015.8  0.00  0.00   0.019   0.000   30.2    37   13.9   30.1   7.02  .0717    115    1    100.0    5 
28/11/20  11:45   12.9   12.9   12.8    88   11.0   9.0     E   0.75  14.0     E   11.2   12.9   11.2  1015.8  0.00  0.00   0.019   0.000   30.3    37   14.0   30.1   7.02  .0717    117    1    100.0    5 
28/11/20  11:50   13.0   13.0   12.9    88   11.1   8.0     E   0.67  13.0     E   11.7   13.0   11.7  1015.8  0.00  0.00   0.019   0.000   30.3    37   14.0   30.2   7.02  .0717    116    1    100.0    5 
28/11/20  11:55   13.1   13.1   13.0    88   11.1   8.0     E   0.67  13.0     E   11.7   13.1   11.7  1015.9  0.00  0.00   0.018   0.000   30.4    37   14.1   30.2   7.02  .0717    117    1    100.0    5 
28/11/20  12:00   13.1   13.1   13.1    88   11.2   8.0     E   0.67  13.0     E   11.8   13.1   11.8  1015.9  0.00  0.00   0.018   0.000   30.4    37   14.1   30.2   7.02  .0717    115    1    100.0    5 
28/11/20  12:05   13.1   13.2   13.1    87   11.0   7.0     E   0.58  11.0     E   12.2   13.1   12.2  1015.9  0.00  0.00   0.018   0.000   30.4    37   14.1   30.3   7.01  .0717    116    1    100.0    5 
28/11/20  12:10   13.1   13.1   13.0    87   10.9   7.0     E   0.58  14.0     E   12.1   13.1   12.1  1015.9  0.00  0.00   0.018   0.000   30.5    37   14.2   30.3   7.01  .0716    117    1    100.0    5 
28/11/20  12:15   13.1   13.2   13.1    87   11.0   8.0     E   0.67  13.0     E   11.8   13.1   11.8  1015.9  0.00  0.00   0.018   0.000   30.6    36   13.8   30.2   6.79  .0717    114    1    100.0    5 
28/11/20  12:20   13.2   13.2   13.1    87   11.0   7.0     E   0.58  12.0   ENE   12.2   13.2   12.2  1015.9  0.00  0.00   0.018   0.000   30.6    36   13.8   30.3   6.79  .0716    117    1    100.0    5 
28/11/20  12:25   13.3   13.3   13.2    87   11.2   7.0     E   0.58  11.0     E   12.4   13.3   12.4  1016.0  0.00  0.00   0.018   0.000   30.6    36   13.8   30.3   6.79  .0716    117    1    100.0    5 
28/11/20  12:30   13.3   13.3   13.3    87   11.2   6.0     E   0.50  11.0   ESE   12.7   13.3   12.7  1015.9  0.00  0.00   0.017   0.000   30.6    36   13.8   30.3   6.79  .0716    117    1    100.0    5 
28/11/20  12:35   13.3   13.4   13.3    87   11.2   5.0     E   0.42  10.0     E   12.9   13.3   12.9  1016.0  0.00  0.00   0.017   0.000   30.7    36   13.9   30.3   6.79  .0716    116    1    100.0    5 
28/11/20  12:40   13.3   13.4   13.3    86   11.0   6.0     E   0.50  10.0   ESE   12.7   13.3   12.6  1016.0  0.00  0.00   0.017   0.000   30.7    36   13.9   30.3   6.80  .0716    117    1    100.0    5 
28/11/20  12:45   13.4   13.4   13.3    86   11.1   5.0     E   0.42  11.0     E   13.1   13.4   13.0  1016.1  0.00  0.00   0.017   0.000   30.7    36   13.9   30.3   6.80  .0716    116    1    100.0    5 
28/11/20  12:50   13.4   13.5   13.4    86   11.1   5.0     E   0.42  10.0     E   13.1   13.4   13.0  1016.1  0.00  0.00   0.017   0.000   30.8    36   14.0   30.4   6.80  .0716    117    1    100.0    5 
28/11/20  12:55   13.5   13.5   13.4    86   11.2   6.0     E   0.50  11.0     E   12.9   13.4   12.8  1016.1  0.00  0.00   0.017   0.000   30.8    36   14.0   30.4   6.80  .0716    117    1    100.0    5 
28/11/20  13:00   13.6   13.6   13.5    86   11.3   6.0     E   0.50  10.0     E   12.9   13.5   12.9  1016.1  0.00  0.00   0.017   0.000   30.8    36   14.0   30.4   6.80  .0716    116    1    100.0    5 
92084